<?xml version="1.0" encoding="UTF-8" standalone="no" ?>
<gpx xmlns="http://www.topografix.com/GPX/1/1" xmlns:xsi="http://www.w3.org/2001/XMLSchema-instance" xsi:schemaLocation="http://www.topografix.com/GPX/1/1 http://www.topografix.com/GPX/1/1/gpx.xsd" version="1.1" creator="VisuGPX - https://www.visugpx.com">
  <metadata>
    <name>nord vercors</name>
  </metadata>
  <trk>
    <name><![CDATA[Crêtes de La Molière et Plateau de Gève - 6931 - UtagawaVTT.com]]></name>
    <trkseg>
      <trkpt lat="45.13021" lon="5.55982">
        <ele>1228.2</ele>
        <time>2007-05-21T06:00:05Z</time>
      </trkpt>
      <trkpt lat="45.1305" lon="5.5604">
        <ele>1230.8</ele>
        <time>2007-05-21T06:00:30Z</time>
      </trkpt>
      <trkpt lat="45.13061" lon="5.56079">
        <ele>1234.2</ele>
        <time>2007-05-21T06:00:42Z</time>
      </trkpt>
      <trkpt lat="45.13074" lon="5.56109">
        <ele>1236</ele>
        <time>2007-05-21T06:00:53Z</time>
      </trkpt>
      <trkpt lat="45.13086" lon="5.56136">
        <ele>1237.1</ele>
        <time>2007-05-21T06:01:02Z</time>
      </trkpt>
      <trkpt lat="45.13099" lon="5.56184">
        <ele>1241.4</ele>
        <time>2007-05-21T06:01:16Z</time>
      </trkpt>
      <trkpt lat="45.13109" lon="5.56205">
        <ele>1244.3</ele>
        <time>2007-05-21T06:01:26Z</time>
      </trkpt>
      <trkpt lat="45.13166" lon="5.56167">
        <ele>1240</ele>
        <time>2007-05-21T06:01:52Z</time>
      </trkpt>
      <trkpt lat="45.13203" lon="5.56156">
        <ele>1242.9</ele>
        <time>2007-05-21T06:02:07Z</time>
      </trkpt>
      <trkpt lat="45.13226" lon="5.5615">
        <ele>1244.7</ele>
        <time>2007-05-21T06:02:17Z</time>
      </trkpt>
      <trkpt lat="45.13257" lon="5.56154">
        <ele>1248.5</ele>
        <time>2007-05-21T06:02:29Z</time>
      </trkpt>
      <trkpt lat="45.13272" lon="5.56167">
        <ele>1251.4</ele>
        <time>2007-05-21T06:02:37Z</time>
      </trkpt>
      <trkpt lat="45.13292" lon="5.56177">
        <ele>1254.1</ele>
        <time>2007-05-21T06:02:45Z</time>
      </trkpt>
      <trkpt lat="45.13321" lon="5.56126">
        <ele>1249.1</ele>
        <time>2007-05-21T06:03:05Z</time>
      </trkpt>
      <trkpt lat="45.13363" lon="5.56091">
        <ele>1250.6</ele>
        <time>2007-05-21T06:03:25Z</time>
      </trkpt>
      <trkpt lat="45.13385" lon="5.56083">
        <ele>1253</ele>
        <time>2007-05-21T06:03:35Z</time>
      </trkpt>
      <trkpt lat="45.13414" lon="5.56084">
        <ele>1257.7</ele>
        <time>2007-05-21T06:03:46Z</time>
      </trkpt>
      <trkpt lat="45.13448" lon="5.56094">
        <ele>1257.7</ele>
        <time>2007-05-21T06:04:00Z</time>
      </trkpt>
      <trkpt lat="45.13469" lon="5.56102">
        <ele>1258.1</ele>
        <time>2007-05-21T06:04:09Z</time>
      </trkpt>
      <trkpt lat="45.13522" lon="5.56141">
        <ele>1265.7</ele>
        <time>2007-05-21T06:04:33Z</time>
      </trkpt>
      <trkpt lat="45.13536" lon="5.56168">
        <ele>1271.8</ele>
        <time>2007-05-21T06:04:43Z</time>
      </trkpt>
      <trkpt lat="45.1356" lon="5.56168">
        <ele>1271.5</ele>
        <time>2007-05-21T06:04:54Z</time>
      </trkpt>
      <trkpt lat="45.13571" lon="5.56139">
        <ele>1265.1</ele>
        <time>2007-05-21T06:05:03Z</time>
      </trkpt>
      <trkpt lat="45.1359" lon="5.56126">
        <ele>1263.1</ele>
        <time>2007-05-21T06:05:13Z</time>
      </trkpt>
      <trkpt lat="45.13617" lon="5.56123">
        <ele>1266.1</ele>
        <time>2007-05-21T06:05:24Z</time>
      </trkpt>
      <trkpt lat="45.13681" lon="5.56109">
        <ele>1270.4</ele>
        <time>2007-05-21T06:05:50Z</time>
      </trkpt>
      <trkpt lat="45.13716" lon="5.56097">
        <ele>1271.8</ele>
        <time>2007-05-21T06:06:05Z</time>
      </trkpt>
      <trkpt lat="45.13751" lon="5.56085">
        <ele>1273.6</ele>
        <time>2007-05-21T06:06:19Z</time>
      </trkpt>
      <trkpt lat="45.13779" lon="5.56076">
        <ele>1275.9</ele>
        <time>2007-05-21T06:06:31Z</time>
      </trkpt>
      <trkpt lat="45.13799" lon="5.56067">
        <ele>1276.5</ele>
        <time>2007-05-21T06:06:39Z</time>
      </trkpt>
      <trkpt lat="45.1382" lon="5.56063">
        <ele>1278.8</ele>
        <time>2007-05-21T06:06:48Z</time>
      </trkpt>
      <trkpt lat="45.1389" lon="5.56059">
        <ele>1275.2</ele>
        <time>2007-05-21T06:07:17Z</time>
      </trkpt>
      <trkpt lat="45.13907" lon="5.5608">
        <ele>1278.4</ele>
        <time>2007-05-21T06:07:26Z</time>
      </trkpt>
      <trkpt lat="45.13908" lon="5.56129">
        <ele>1287</ele>
        <time>2007-05-21T06:07:41Z</time>
      </trkpt>
      <trkpt lat="45.13909" lon="5.56157">
        <ele>1291.7</ele>
        <time>2007-05-21T06:07:49Z</time>
      </trkpt>
      <trkpt lat="45.13914" lon="5.56184">
        <ele>1294.8</ele>
        <time>2007-05-21T06:07:57Z</time>
      </trkpt>
      <trkpt lat="45.13919" lon="5.56225">
        <ele>1299.7</ele>
        <time>2007-05-21T06:08:09Z</time>
      </trkpt>
      <trkpt lat="45.13953" lon="5.56249">
        <ele>1304.2</ele>
        <time>2007-05-21T06:08:27Z</time>
      </trkpt>
      <trkpt lat="45.13967" lon="5.56227">
        <ele>1301.3</ele>
        <time>2007-05-21T06:08:36Z</time>
      </trkpt>
      <trkpt lat="45.13979" lon="5.56204">
        <ele>1297.9</ele>
        <time>2007-05-21T06:08:45Z</time>
      </trkpt>
      <trkpt lat="45.14" lon="5.56192">
        <ele>1296.2</ele>
        <time>2007-05-21T06:08:54Z</time>
      </trkpt>
      <trkpt lat="45.14023" lon="5.56205">
        <ele>1297.1</ele>
        <time>2007-05-21T06:09:05Z</time>
      </trkpt>
      <trkpt lat="45.14045" lon="5.56236">
        <ele>1302.1</ele>
        <time>2007-05-21T06:09:17Z</time>
      </trkpt>
      <trkpt lat="45.14083" lon="5.56286">
        <ele>1312.6</ele>
        <time>2007-05-21T06:09:40Z</time>
      </trkpt>
      <trkpt lat="45.141" lon="5.56263">
        <ele>1310.6</ele>
        <time>2007-05-21T06:09:50Z</time>
      </trkpt>
      <trkpt lat="45.14116" lon="5.56238">
        <ele>1308.2</ele>
        <time>2007-05-21T06:09:59Z</time>
      </trkpt>
      <trkpt lat="45.14141" lon="5.56225">
        <ele>1310.3</ele>
        <time>2007-05-21T06:10:10Z</time>
      </trkpt>
      <trkpt lat="45.14205" lon="5.56225">
        <ele>1317.3</ele>
        <time>2007-05-21T06:10:36Z</time>
      </trkpt>
      <trkpt lat="45.1424" lon="5.56234">
        <ele>1320.9</ele>
        <time>2007-05-21T06:10:50Z</time>
      </trkpt>
      <trkpt lat="45.14277" lon="5.56253">
        <ele>1326.2</ele>
        <time>2007-05-21T06:11:06Z</time>
      </trkpt>
      <trkpt lat="45.14304" lon="5.56258">
        <ele>1328.1</ele>
        <time>2007-05-21T06:11:17Z</time>
      </trkpt>
      <trkpt lat="45.14342" lon="5.5625">
        <ele>1327.1</ele>
        <time>2007-05-21T06:11:33Z</time>
      </trkpt>
      <trkpt lat="45.14362" lon="5.56243">
        <ele>1328</ele>
        <time>2007-05-21T06:11:41Z</time>
      </trkpt>
      <trkpt lat="45.14386" lon="5.56245">
        <ele>1331.7</ele>
        <time>2007-05-21T06:11:51Z</time>
      </trkpt>
      <trkpt lat="45.14408" lon="5.56259">
        <ele>1338.3</ele>
        <time>2007-05-21T06:12:01Z</time>
      </trkpt>
      <trkpt lat="45.14444" lon="5.56224">
        <ele>1333.9</ele>
        <time>2007-05-21T06:12:21Z</time>
      </trkpt>
      <trkpt lat="45.14463" lon="5.56213">
        <ele>1333.4</ele>
        <time>2007-05-21T06:12:29Z</time>
      </trkpt>
      <trkpt lat="45.14483" lon="5.56218">
        <ele>1336.9</ele>
        <time>2007-05-21T06:12:37Z</time>
      </trkpt>
      <trkpt lat="45.1451" lon="5.56229">
        <ele>1340.6</ele>
        <time>2007-05-21T06:12:49Z</time>
      </trkpt>
      <trkpt lat="45.14537" lon="5.56231">
        <ele>1338.1</ele>
        <time>2007-05-21T06:13:00Z</time>
      </trkpt>
      <trkpt lat="45.14556" lon="5.56239">
        <ele>1338.1</ele>
        <time>2007-05-21T06:13:08Z</time>
      </trkpt>
      <trkpt lat="45.14596" lon="5.56297">
        <ele>1346.5</ele>
        <time>2007-05-21T06:13:31Z</time>
      </trkpt>
      <trkpt lat="45.14608" lon="5.56325">
        <ele>1350.4</ele>
        <time>2007-05-21T06:13:40Z</time>
      </trkpt>
      <trkpt lat="45.14629" lon="5.56354">
        <ele>1353.4</ele>
        <time>2007-05-21T06:13:53Z</time>
      </trkpt>
      <trkpt lat="45.14647" lon="5.564">
        <ele>1358.3</ele>
        <time>2007-05-21T06:14:07Z</time>
      </trkpt>
      <trkpt lat="45.14655" lon="5.56428">
        <ele>1361.1</ele>
        <time>2007-05-21T06:14:16Z</time>
      </trkpt>
      <trkpt lat="45.14666" lon="5.56451">
        <ele>1362.6</ele>
        <time>2007-05-21T06:14:24Z</time>
      </trkpt>
      <trkpt lat="45.14674" lon="5.56417">
        <ele>1359.4</ele>
        <time>2007-05-21T06:14:43Z</time>
      </trkpt>
      <trkpt lat="45.14682" lon="5.5638">
        <ele>1356.8</ele>
        <time>2007-05-21T06:14:55Z</time>
      </trkpt>
      <trkpt lat="45.14702" lon="5.56373">
        <ele>1360.2</ele>
        <time>2007-05-21T06:15:03Z</time>
      </trkpt>
      <trkpt lat="45.14722" lon="5.5636">
        <ele>1363.1</ele>
        <time>2007-05-21T06:15:12Z</time>
      </trkpt>
      <trkpt lat="45.14729" lon="5.56333">
        <ele>1362.2</ele>
        <time>2007-05-21T06:15:21Z</time>
      </trkpt>
      <trkpt lat="45.14737" lon="5.56303">
        <ele>1361.7</ele>
        <time>2007-05-21T06:15:30Z</time>
      </trkpt>
      <trkpt lat="45.14772" lon="5.56268">
        <ele>1361.7</ele>
        <time>2007-05-21T06:15:48Z</time>
      </trkpt>
      <trkpt lat="45.14795" lon="5.56252">
        <ele>1360.2</ele>
        <time>2007-05-21T06:15:58Z</time>
      </trkpt>
      <trkpt lat="45.14819" lon="5.56259">
        <ele>1361</ele>
        <time>2007-05-21T06:16:08Z</time>
      </trkpt>
      <trkpt lat="45.14845" lon="5.56294">
        <ele>1363.6</ele>
        <time>2007-05-21T06:16:22Z</time>
      </trkpt>
      <trkpt lat="45.14857" lon="5.56324">
        <ele>1366.3</ele>
        <time>2007-05-21T06:16:33Z</time>
      </trkpt>
      <trkpt lat="45.1487" lon="5.56355">
        <ele>1369.3</ele>
        <time>2007-05-21T06:16:43Z</time>
      </trkpt>
      <trkpt lat="45.14895" lon="5.5641">
        <ele>1375.1</ele>
        <time>2007-05-21T06:17:02Z</time>
      </trkpt>
      <trkpt lat="45.14912" lon="5.56433">
        <ele>1378.4</ele>
        <time>2007-05-21T06:17:11Z</time>
      </trkpt>
      <trkpt lat="45.14956" lon="5.56434">
        <ele>1368</ele>
        <time>2007-05-21T06:17:29Z</time>
      </trkpt>
      <trkpt lat="45.1498" lon="5.56453">
        <ele>1367</ele>
        <time>2007-05-21T06:17:41Z</time>
      </trkpt>
      <trkpt lat="45.14996" lon="5.5649">
        <ele>1374.6</ele>
        <time>2007-05-21T06:17:53Z</time>
      </trkpt>
      <trkpt lat="45.15031" lon="5.56536">
        <ele>1378.6</ele>
        <time>2007-05-21T06:18:13Z</time>
      </trkpt>
      <trkpt lat="45.15068" lon="5.56606">
        <ele>1387.2</ele>
        <time>2007-05-21T06:18:39Z</time>
      </trkpt>
      <trkpt lat="45.15106" lon="5.56603">
        <ele>1388.4</ele>
        <time>2007-05-21T06:18:54Z</time>
      </trkpt>
      <trkpt lat="45.15133" lon="5.56599">
        <ele>1392.1</ele>
        <time>2007-05-21T06:19:05Z</time>
      </trkpt>
      <trkpt lat="45.15138" lon="5.5657">
        <ele>1388.5</ele>
        <time>2007-05-21T06:19:14Z</time>
      </trkpt>
      <trkpt lat="45.15124" lon="5.56533">
        <ele>1380.3</ele>
        <time>2007-05-21T06:19:26Z</time>
      </trkpt>
      <trkpt lat="45.1514" lon="5.56498">
        <ele>1379.7</ele>
        <time>2007-05-21T06:19:39Z</time>
      </trkpt>
      <trkpt lat="45.15208" lon="5.56479">
        <ele>1385.3</ele>
        <time>2007-05-21T06:20:07Z</time>
      </trkpt>
      <trkpt lat="45.15244" lon="5.56488">
        <ele>1390.9</ele>
        <time>2007-05-21T06:20:22Z</time>
      </trkpt>
      <trkpt lat="45.15262" lon="5.5648">
        <ele>1391.6</ele>
        <time>2007-05-21T06:20:30Z</time>
      </trkpt>
      <trkpt lat="45.15278" lon="5.56445">
        <ele>1387.4</ele>
        <time>2007-05-21T06:20:42Z</time>
      </trkpt>
      <trkpt lat="45.1529" lon="5.56409">
        <ele>1382.4</ele>
        <time>2007-05-21T06:20:53Z</time>
      </trkpt>
      <trkpt lat="45.15305" lon="5.56383">
        <ele>1378.4</ele>
        <time>2007-05-21T06:21:03Z</time>
      </trkpt>
      <trkpt lat="45.1535" lon="5.56345">
        <ele>1374.6</ele>
        <time>2007-05-21T06:21:24Z</time>
      </trkpt>
      <trkpt lat="45.15372" lon="5.56342">
        <ele>1374.2</ele>
        <time>2007-05-21T06:21:33Z</time>
      </trkpt>
      <trkpt lat="45.15399" lon="5.5635">
        <ele>1376.8</ele>
        <time>2007-05-21T06:21:45Z</time>
      </trkpt>
      <trkpt lat="45.15416" lon="5.56371">
        <ele>1382.5</ele>
        <time>2007-05-21T06:21:54Z</time>
      </trkpt>
      <trkpt lat="45.15445" lon="5.56403">
        <ele>1380.1</ele>
        <time>2007-05-21T06:22:09Z</time>
      </trkpt>
      <trkpt lat="45.15463" lon="5.5643">
        <ele>1381.1</ele>
        <time>2007-05-21T06:22:20Z</time>
      </trkpt>
      <trkpt lat="45.1549" lon="5.56469">
        <ele>1382.4</ele>
        <time>2007-05-21T06:22:35Z</time>
      </trkpt>
      <trkpt lat="45.1552" lon="5.56494">
        <ele>1377.7</ele>
        <time>2007-05-21T06:22:49Z</time>
      </trkpt>
      <trkpt lat="45.15536" lon="5.56535">
        <ele>1378.7</ele>
        <time>2007-05-21T06:23:03Z</time>
      </trkpt>
      <trkpt lat="45.15549" lon="5.56599">
        <ele>1384.8</ele>
        <time>2007-05-21T06:23:22Z</time>
      </trkpt>
      <trkpt lat="45.15541" lon="5.56635">
        <ele>1390.3</ele>
        <time>2007-05-21T06:23:33Z</time>
      </trkpt>
      <trkpt lat="45.15525" lon="5.56695">
        <ele>1396.6</ele>
        <time>2007-05-21T06:23:52Z</time>
      </trkpt>
      <trkpt lat="45.15559" lon="5.56724">
        <ele>1398.7</ele>
        <time>2007-05-21T06:24:13Z</time>
      </trkpt>
      <trkpt lat="45.1558" lon="5.56704">
        <ele>1395.3</ele>
        <time>2007-05-21T06:24:23Z</time>
      </trkpt>
      <trkpt lat="45.15601" lon="5.56677">
        <ele>1393.5</ele>
        <time>2007-05-21T06:24:35Z</time>
      </trkpt>
      <trkpt lat="45.15617" lon="5.56637">
        <ele>1387.6</ele>
        <time>2007-05-21T06:24:48Z</time>
      </trkpt>
      <trkpt lat="45.15631" lon="5.56605">
        <ele>1381.9</ele>
        <time>2007-05-21T06:24:58Z</time>
      </trkpt>
      <trkpt lat="45.15643" lon="5.56583">
        <ele>1377.6</ele>
        <time>2007-05-21T06:25:06Z</time>
      </trkpt>
      <trkpt lat="45.1569" lon="5.56615">
        <ele>1386.9</ele>
        <time>2007-05-21T06:25:30Z</time>
      </trkpt>
      <trkpt lat="45.15713" lon="5.56643">
        <ele>1391</ele>
        <time>2007-05-21T06:25:42Z</time>
      </trkpt>
      <trkpt lat="45.15748" lon="5.56665">
        <ele>1390</ele>
        <time>2007-05-21T06:25:58Z</time>
      </trkpt>
      <trkpt lat="45.15772" lon="5.5668">
        <ele>1395.1</ele>
        <time>2007-05-21T06:26:09Z</time>
      </trkpt>
      <trkpt lat="45.15789" lon="5.56722">
        <ele>1403.5</ele>
        <time>2007-05-21T06:26:23Z</time>
      </trkpt>
      <trkpt lat="45.15806" lon="5.56754">
        <ele>1407.4</ele>
        <time>2007-05-21T06:26:34Z</time>
      </trkpt>
      <trkpt lat="45.15837" lon="5.567">
        <ele>1402.6</ele>
        <time>2007-05-21T06:26:57Z</time>
      </trkpt>
      <trkpt lat="45.15836" lon="5.56658">
        <ele>1399.8</ele>
        <time>2007-05-21T06:27:09Z</time>
      </trkpt>
      <trkpt lat="45.15826" lon="5.56632">
        <ele>1397.7</ele>
        <time>2007-05-21T06:27:17Z</time>
      </trkpt>
      <trkpt lat="45.15817" lon="5.56594">
        <ele>1394.8</ele>
        <time>2007-05-21T06:27:28Z</time>
      </trkpt>
      <trkpt lat="45.15825" lon="5.56545">
        <ele>1392.9</ele>
        <time>2007-05-21T06:27:43Z</time>
      </trkpt>
      <trkpt lat="45.15845" lon="5.56506">
        <ele>1392.5</ele>
        <time>2007-05-21T06:27:57Z</time>
      </trkpt>
      <trkpt lat="45.15893" lon="5.56489">
        <ele>1393.4</ele>
        <time>2007-05-21T06:28:17Z</time>
      </trkpt>
      <trkpt lat="45.15915" lon="5.565">
        <ele>1396.9</ele>
        <time>2007-05-21T06:28:27Z</time>
      </trkpt>
      <trkpt lat="45.15937" lon="5.56518">
        <ele>1398.2</ele>
        <time>2007-05-21T06:28:38Z</time>
      </trkpt>
      <trkpt lat="45.15952" lon="5.56539">
        <ele>1400.9</ele>
        <time>2007-05-21T06:28:46Z</time>
      </trkpt>
      <trkpt lat="45.15965" lon="5.56564">
        <ele>1405</ele>
        <time>2007-05-21T06:28:55Z</time>
      </trkpt>
      <trkpt lat="45.15988" lon="5.56592">
        <ele>1409.1</ele>
        <time>2007-05-21T06:29:08Z</time>
      </trkpt>
      <trkpt lat="45.16056" lon="5.56584">
        <ele>1411.5</ele>
        <time>2007-05-21T06:29:36Z</time>
      </trkpt>
      <trkpt lat="45.16082" lon="5.56589">
        <ele>1415</ele>
        <time>2007-05-21T06:29:46Z</time>
      </trkpt>
      <trkpt lat="45.16122" lon="5.56593">
        <ele>1414.8</ele>
        <time>2007-05-21T06:30:02Z</time>
      </trkpt>
      <trkpt lat="45.16147" lon="5.56587">
        <ele>1412.6</ele>
        <time>2007-05-21T06:30:13Z</time>
      </trkpt>
      <trkpt lat="45.16168" lon="5.56591">
        <ele>1412.6</ele>
        <time>2007-05-21T06:30:21Z</time>
      </trkpt>
      <trkpt lat="45.16188" lon="5.56603">
        <ele>1411.1</ele>
        <time>2007-05-21T06:30:30Z</time>
      </trkpt>
      <trkpt lat="45.16224" lon="5.56638">
        <ele>1413.2</ele>
        <time>2007-05-21T06:30:48Z</time>
      </trkpt>
      <trkpt lat="45.16233" lon="5.56667">
        <ele>1420.2</ele>
        <time>2007-05-21T06:30:57Z</time>
      </trkpt>
      <trkpt lat="45.16245" lon="5.56689">
        <ele>1424.5</ele>
        <time>2007-05-21T06:31:06Z</time>
      </trkpt>
      <trkpt lat="45.16277" lon="5.56687">
        <ele>1426.4</ele>
        <time>2007-05-21T06:31:19Z</time>
      </trkpt>
      <trkpt lat="45.16295" lon="5.56668">
        <ele>1422.3</ele>
        <time>2007-05-21T06:31:28Z</time>
      </trkpt>
      <trkpt lat="45.16325" lon="5.56628">
        <ele>1413.4</ele>
        <time>2007-05-21T06:31:44Z</time>
      </trkpt>
      <trkpt lat="45.16396" lon="5.5662">
        <ele>1419.4</ele>
        <time>2007-05-21T06:32:14Z</time>
      </trkpt>
      <trkpt lat="45.16439" lon="5.56627">
        <ele>1423.2</ele>
        <time>2007-05-21T06:32:32Z</time>
      </trkpt>
      <trkpt lat="45.16462" lon="5.56626">
        <ele>1421.9</ele>
        <time>2007-05-21T06:32:41Z</time>
      </trkpt>
      <trkpt lat="45.16492" lon="5.56631">
        <ele>1422.4</ele>
        <time>2007-05-21T06:32:53Z</time>
      </trkpt>
      <trkpt lat="45.1652" lon="5.56637">
        <ele>1422</ele>
        <time>2007-05-21T06:33:05Z</time>
      </trkpt>
      <trkpt lat="45.16554" lon="5.56644">
        <ele>1420.4</ele>
        <time>2007-05-21T06:33:19Z</time>
      </trkpt>
      <trkpt lat="45.16613" lon="5.56696">
        <ele>1408.2</ele>
        <time>2007-05-21T06:33:49Z</time>
      </trkpt>
      <trkpt lat="45.16605" lon="5.56723">
        <ele>1414.2</ele>
        <time>2007-05-21T06:33:57Z</time>
      </trkpt>
      <trkpt lat="45.16596" lon="5.56751">
        <ele>1422.2</ele>
        <time>2007-05-21T06:34:06Z</time>
      </trkpt>
      <trkpt lat="45.16588" lon="5.56791">
        <ele>1418.3</ele>
        <time>2007-05-21T06:34:18Z</time>
      </trkpt>
      <trkpt lat="45.16578" lon="5.56826">
        <ele>1417</ele>
        <time>2007-05-21T06:34:29Z</time>
      </trkpt>
      <trkpt lat="45.16574" lon="5.56854">
        <ele>1412.3</ele>
        <time>2007-05-21T06:34:37Z</time>
      </trkpt>
      <trkpt lat="45.16529" lon="5.56916">
        <ele>1441.5</ele>
        <time>2007-05-21T06:35:03Z</time>
      </trkpt>
      <trkpt lat="45.16513" lon="5.56932">
        <ele>1455.6</ele>
        <time>2007-05-21T06:35:14Z</time>
      </trkpt>
      <trkpt lat="45.16524" lon="5.56943">
        <ele>1442.1</ele>
        <time>2007-05-21T06:35:23Z</time>
      </trkpt>
      <trkpt lat="45.16524" lon="5.56941">
        <ele>1442.4</ele>
        <time>2007-05-21T06:35:31Z</time>
      </trkpt>
      <trkpt lat="45.16516" lon="5.56954">
        <ele>1448.7</ele>
        <time>2007-05-21T06:35:39Z</time>
      </trkpt>
      <trkpt lat="45.16507" lon="5.56984">
        <ele>1453.2</ele>
        <time>2007-05-21T06:35:48Z</time>
      </trkpt>
      <trkpt lat="45.16504" lon="5.57095">
        <ele>1442.5</ele>
        <time>2007-05-21T06:36:21Z</time>
      </trkpt>
      <trkpt lat="45.16509" lon="5.57146">
        <ele>1435.1</ele>
        <time>2007-05-21T06:36:35Z</time>
      </trkpt>
      <trkpt lat="45.16516" lon="5.57178">
        <ele>1428.2</ele>
        <time>2007-05-21T06:36:45Z</time>
      </trkpt>
      <trkpt lat="45.16514" lon="5.57226">
        <ele>1428.9</ele>
        <time>2007-05-21T06:36:59Z</time>
      </trkpt>
      <trkpt lat="45.16505" lon="5.57269">
        <ele>1435.3</ele>
        <time>2007-05-21T06:37:11Z</time>
      </trkpt>
      <trkpt lat="45.16508" lon="5.57321">
        <ele>1435.1</ele>
        <time>2007-05-21T06:37:26Z</time>
      </trkpt>
      <trkpt lat="45.16512" lon="5.57422">
        <ele>1434.7</ele>
        <time>2007-05-21T06:37:55Z</time>
      </trkpt>
      <trkpt lat="45.16506" lon="5.5746">
        <ele>1440.2</ele>
        <time>2007-05-21T06:38:06Z</time>
      </trkpt>
      <trkpt lat="45.1651" lon="5.57502">
        <ele>1440.4</ele>
        <time>2007-05-21T06:38:18Z</time>
      </trkpt>
      <trkpt lat="45.16507" lon="5.57553">
        <ele>1446</ele>
        <time>2007-05-21T06:38:33Z</time>
      </trkpt>
      <trkpt lat="45.16506" lon="5.57599">
        <ele>1451.8</ele>
        <time>2007-05-21T06:38:50Z</time>
      </trkpt>
      <trkpt lat="45.16524" lon="5.57638">
        <ele>1453.2</ele>
        <time>2007-05-21T06:39:03Z</time>
      </trkpt>
      <trkpt lat="45.16566" lon="5.57697">
        <ele>1455.2</ele>
        <time>2007-05-21T06:39:27Z</time>
      </trkpt>
      <trkpt lat="45.16582" lon="5.57718">
        <ele>1457.3</ele>
        <time>2007-05-21T06:39:36Z</time>
      </trkpt>
      <trkpt lat="45.16623" lon="5.57708">
        <ele>1455.8</ele>
        <time>2007-05-21T06:39:53Z</time>
      </trkpt>
      <trkpt lat="45.16679" lon="5.57689">
        <ele>1451.5</ele>
        <time>2007-05-21T06:40:16Z</time>
      </trkpt>
      <trkpt lat="45.16727" lon="5.57689">
        <ele>1451.4</ele>
        <time>2007-05-21T06:40:35Z</time>
      </trkpt>
      <trkpt lat="45.16756" lon="5.57707">
        <ele>1456.1</ele>
        <time>2007-05-21T06:40:48Z</time>
      </trkpt>
      <trkpt lat="45.16799" lon="5.57722">
        <ele>1457</ele>
        <time>2007-05-21T06:41:06Z</time>
      </trkpt>
      <trkpt lat="45.16818" lon="5.5774">
        <ele>1461.6</ele>
        <time>2007-05-21T06:41:16Z</time>
      </trkpt>
      <trkpt lat="45.16839" lon="5.57764">
        <ele>1467</ele>
        <time>2007-05-21T06:41:27Z</time>
      </trkpt>
      <trkpt lat="45.1686" lon="5.57795">
        <ele>1473.6</ele>
        <time>2007-05-21T06:41:39Z</time>
      </trkpt>
      <trkpt lat="45.16892" lon="5.578">
        <ele>1471.5</ele>
        <time>2007-05-21T06:41:52Z</time>
      </trkpt>
      <trkpt lat="45.16914" lon="5.57805">
        <ele>1471.1</ele>
        <time>2007-05-21T06:42:01Z</time>
      </trkpt>
      <trkpt lat="45.16961" lon="5.57806">
        <ele>1471.7</ele>
        <time>2007-05-21T06:42:21Z</time>
      </trkpt>
      <trkpt lat="45.17005" lon="5.57801">
        <ele>1469.4</ele>
        <time>2007-05-21T06:42:39Z</time>
      </trkpt>
      <trkpt lat="45.17038" lon="5.57806">
        <ele>1467.2</ele>
        <time>2007-05-21T06:42:52Z</time>
      </trkpt>
      <trkpt lat="45.17065" lon="5.57814">
        <ele>1466.6</ele>
        <time>2007-05-21T06:43:03Z</time>
      </trkpt>
      <trkpt lat="45.17093" lon="5.57826">
        <ele>1467.4</ele>
        <time>2007-05-21T06:43:15Z</time>
      </trkpt>
      <trkpt lat="45.17122" lon="5.57835">
        <ele>1467.9</ele>
        <time>2007-05-21T06:43:27Z</time>
      </trkpt>
      <trkpt lat="45.17213" lon="5.57832">
        <ele>1464.2</ele>
        <time>2007-05-21T06:44:04Z</time>
      </trkpt>
      <trkpt lat="45.17257" lon="5.57835">
        <ele>1467.8</ele>
        <time>2007-05-21T06:44:22Z</time>
      </trkpt>
      <trkpt lat="45.17286" lon="5.57821">
        <ele>1469.3</ele>
        <time>2007-05-21T06:44:34Z</time>
      </trkpt>
      <trkpt lat="45.17316" lon="5.57795">
        <ele>1468.2</ele>
        <time>2007-05-21T06:44:49Z</time>
      </trkpt>
      <trkpt lat="45.17349" lon="5.5776">
        <ele>1472.1</ele>
        <time>2007-05-21T06:45:05Z</time>
      </trkpt>
      <trkpt lat="45.1736" lon="5.57724">
        <ele>1474.2</ele>
        <time>2007-05-21T06:45:17Z</time>
      </trkpt>
      <trkpt lat="45.17357" lon="5.57645">
        <ele>1465.6</ele>
        <time>2007-05-21T06:45:39Z</time>
      </trkpt>
      <trkpt lat="45.1736" lon="5.5761">
        <ele>1464.1</ele>
        <time>2007-05-21T06:45:49Z</time>
      </trkpt>
      <trkpt lat="45.17368" lon="5.57568">
        <ele>1464.8</ele>
        <time>2007-05-21T06:46:01Z</time>
      </trkpt>
      <trkpt lat="45.17379" lon="5.57527">
        <ele>1467.2</ele>
        <time>2007-05-21T06:46:13Z</time>
      </trkpt>
      <trkpt lat="45.17393" lon="5.57473">
        <ele>1472.5</ele>
        <time>2007-05-21T06:46:30Z</time>
      </trkpt>
      <trkpt lat="45.17397" lon="5.57437">
        <ele>1473</ele>
        <time>2007-05-21T06:46:40Z</time>
      </trkpt>
      <trkpt lat="45.17398" lon="5.57272">
        <ele>1460</ele>
        <time>2007-05-21T06:47:27Z</time>
      </trkpt>
      <trkpt lat="45.17415" lon="5.57259">
        <ele>1466</ele>
        <time>2007-05-21T06:47:36Z</time>
      </trkpt>
      <trkpt lat="45.17444" lon="5.57274">
        <ele>1466</ele>
        <time>2007-05-21T06:47:48Z</time>
      </trkpt>
      <trkpt lat="45.17456" lon="5.57295">
        <ele>1468.2</ele>
        <time>2007-05-21T06:47:56Z</time>
      </trkpt>
      <trkpt lat="45.17465" lon="5.57329">
        <ele>1473.1</ele>
        <time>2007-05-21T06:48:06Z</time>
      </trkpt>
      <trkpt lat="45.1748" lon="5.57376">
        <ele>1481.4</ele>
        <time>2007-05-21T06:48:21Z</time>
      </trkpt>
      <trkpt lat="45.17512" lon="5.57468">
        <ele>1498.6</ele>
        <time>2007-05-21T06:48:50Z</time>
      </trkpt>
      <trkpt lat="45.17523" lon="5.57493">
        <ele>1500.6</ele>
        <time>2007-05-21T06:48:59Z</time>
      </trkpt>
      <trkpt lat="45.17537" lon="5.57514">
        <ele>1501.2</ele>
        <time>2007-05-21T06:49:07Z</time>
      </trkpt>
      <trkpt lat="45.17554" lon="5.57544">
        <ele>1504.1</ele>
        <time>2007-05-21T06:49:18Z</time>
      </trkpt>
      <trkpt lat="45.17568" lon="5.57568">
        <ele>1507.2</ele>
        <time>2007-05-21T06:49:27Z</time>
      </trkpt>
      <trkpt lat="45.17592" lon="5.57583">
        <ele>1507.8</ele>
        <time>2007-05-21T06:49:38Z</time>
      </trkpt>
      <trkpt lat="45.17652" lon="5.57553">
        <ele>1494.7</ele>
        <time>2007-05-21T06:50:04Z</time>
      </trkpt>
      <trkpt lat="45.17681" lon="5.57554">
        <ele>1494.5</ele>
        <time>2007-05-21T06:50:16Z</time>
      </trkpt>
      <trkpt lat="45.1772" lon="5.57559">
        <ele>1497.3</ele>
        <time>2007-05-21T06:50:32Z</time>
      </trkpt>
      <trkpt lat="45.17763" lon="5.5756">
        <ele>1495.9</ele>
        <time>2007-05-21T06:50:49Z</time>
      </trkpt>
      <trkpt lat="45.17797" lon="5.5757">
        <ele>1493.6</ele>
        <time>2007-05-21T06:51:03Z</time>
      </trkpt>
      <trkpt lat="45.17825" lon="5.57588">
        <ele>1494.2</ele>
        <time>2007-05-21T06:51:15Z</time>
      </trkpt>
      <trkpt lat="45.17853" lon="5.57662">
        <ele>1515.2</ele>
        <time>2007-05-21T06:51:40Z</time>
      </trkpt>
      <trkpt lat="45.17878" lon="5.57668">
        <ele>1516.8</ele>
        <time>2007-05-21T06:51:51Z</time>
      </trkpt>
      <trkpt lat="45.17897" lon="5.57646">
        <ele>1509.4</ele>
        <time>2007-05-21T06:52:02Z</time>
      </trkpt>
      <trkpt lat="45.17921" lon="5.57603">
        <ele>1494.4</ele>
        <time>2007-05-21T06:52:17Z</time>
      </trkpt>
      <trkpt lat="45.1796" lon="5.57584">
        <ele>1487.6</ele>
        <time>2007-05-21T06:52:34Z</time>
      </trkpt>
      <trkpt lat="45.17981" lon="5.57618">
        <ele>1496.3</ele>
        <time>2007-05-21T06:52:48Z</time>
      </trkpt>
      <trkpt lat="45.17996" lon="5.57688">
        <ele>1511.8</ele>
        <time>2007-05-21T06:53:09Z</time>
      </trkpt>
      <trkpt lat="45.18018" lon="5.57684">
        <ele>1508.5</ele>
        <time>2007-05-21T06:53:19Z</time>
      </trkpt>
      <trkpt lat="45.18039" lon="5.57677">
        <ele>1504.6</ele>
        <time>2007-05-21T06:53:28Z</time>
      </trkpt>
      <trkpt lat="45.18061" lon="5.57689">
        <ele>1504.8</ele>
        <time>2007-05-21T06:53:38Z</time>
      </trkpt>
      <trkpt lat="45.1808" lon="5.57708">
        <ele>1507.2</ele>
        <time>2007-05-21T06:53:47Z</time>
      </trkpt>
      <trkpt lat="45.18096" lon="5.57732">
        <ele>1511.9</ele>
        <time>2007-05-21T06:53:57Z</time>
      </trkpt>
      <trkpt lat="45.1811" lon="5.57814">
        <ele>1522.4</ele>
        <time>2007-05-21T06:54:21Z</time>
      </trkpt>
      <trkpt lat="45.18115" lon="5.5784">
        <ele>1525.5</ele>
        <time>2007-05-21T06:54:29Z</time>
      </trkpt>
      <trkpt lat="45.18122" lon="5.57866">
        <ele>1529.4</ele>
        <time>2007-05-21T06:54:37Z</time>
      </trkpt>
      <trkpt lat="45.18137" lon="5.57884">
        <ele>1531.9</ele>
        <time>2007-05-21T06:54:45Z</time>
      </trkpt>
      <trkpt lat="45.18146" lon="5.57858">
        <ele>1527.2</ele>
        <time>2007-05-21T06:54:54Z</time>
      </trkpt>
      <trkpt lat="45.18162" lon="5.5783">
        <ele>1521.7</ele>
        <time>2007-05-21T06:55:05Z</time>
      </trkpt>
      <trkpt lat="45.18196" lon="5.57778">
        <ele>1513.9</ele>
        <time>2007-05-21T06:55:25Z</time>
      </trkpt>
      <trkpt lat="45.18207" lon="5.57755">
        <ele>1510.3</ele>
        <time>2007-05-21T06:55:33Z</time>
      </trkpt>
      <trkpt lat="45.18228" lon="5.57759">
        <ele>1510.7</ele>
        <time>2007-05-21T06:55:43Z</time>
      </trkpt>
      <trkpt lat="45.18244" lon="5.5781">
        <ele>1519</ele>
        <time>2007-05-21T06:55:59Z</time>
      </trkpt>
      <trkpt lat="45.18256" lon="5.57843">
        <ele>1522.2</ele>
        <time>2007-05-21T06:56:10Z</time>
      </trkpt>
      <trkpt lat="45.18269" lon="5.57874">
        <ele>1521.9</ele>
        <time>2007-05-21T06:56:20Z</time>
      </trkpt>
      <trkpt lat="45.18312" lon="5.5797">
        <ele>1520.1</ele>
        <time>2007-05-21T06:56:52Z</time>
      </trkpt>
      <trkpt lat="45.18332" lon="5.58012">
        <ele>1519.4</ele>
        <time>2007-05-21T06:57:07Z</time>
      </trkpt>
      <trkpt lat="45.18361" lon="5.58037">
        <ele>1522.3</ele>
        <time>2007-05-21T06:57:21Z</time>
      </trkpt>
      <trkpt lat="45.18411" lon="5.58028">
        <ele>1519.2</ele>
        <time>2007-05-21T06:57:41Z</time>
      </trkpt>
      <trkpt lat="45.18452" lon="5.5801">
        <ele>1516.7</ele>
        <time>2007-05-21T06:57:58Z</time>
      </trkpt>
      <trkpt lat="45.18502" lon="5.58009">
        <ele>1519.5</ele>
        <time>2007-05-21T06:58:18Z</time>
      </trkpt>
      <trkpt lat="45.18579" lon="5.58006">
        <ele>1517.7</ele>
        <time>2007-05-21T06:58:50Z</time>
      </trkpt>
      <trkpt lat="45.18609" lon="5.58008">
        <ele>1511</ele>
        <time>2007-05-21T06:59:02Z</time>
      </trkpt>
      <trkpt lat="45.1863" lon="5.58026">
        <ele>1508.2</ele>
        <time>2007-05-21T06:59:12Z</time>
      </trkpt>
      <trkpt lat="45.18641" lon="5.58058">
        <ele>1509.6</ele>
        <time>2007-05-21T06:59:23Z</time>
      </trkpt>
      <trkpt lat="45.18645" lon="5.58102">
        <ele>1515.6</ele>
        <time>2007-05-21T06:59:35Z</time>
      </trkpt>
      <trkpt lat="45.18651" lon="5.58171">
        <ele>1526.6</ele>
        <time>2007-05-21T06:59:55Z</time>
      </trkpt>
      <trkpt lat="45.18665" lon="5.58267">
        <ele>1529.3</ele>
        <time>2007-05-21T07:00:23Z</time>
      </trkpt>
      <trkpt lat="45.1867" lon="5.58334">
        <ele>1532.3</ele>
        <time>2007-05-21T07:00:43Z</time>
      </trkpt>
      <trkpt lat="45.18694" lon="5.58357">
        <ele>1529.9</ele>
        <time>2007-05-21T07:00:54Z</time>
      </trkpt>
      <trkpt lat="45.18727" lon="5.58372">
        <ele>1526.1</ele>
        <time>2007-05-21T07:01:09Z</time>
      </trkpt>
      <trkpt lat="45.18759" lon="5.58393">
        <ele>1525.8</ele>
        <time>2007-05-21T07:01:23Z</time>
      </trkpt>
      <trkpt lat="45.18805" lon="5.58426">
        <ele>1528.6</ele>
        <time>2007-05-21T07:01:44Z</time>
      </trkpt>
      <trkpt lat="45.18862" lon="5.58431">
        <ele>1525.7</ele>
        <time>2007-05-21T07:02:08Z</time>
      </trkpt>
      <trkpt lat="45.18896" lon="5.58428">
        <ele>1523.7</ele>
        <time>2007-05-21T07:02:21Z</time>
      </trkpt>
      <trkpt lat="45.1893" lon="5.58431">
        <ele>1524.7</ele>
        <time>2007-05-21T07:02:35Z</time>
      </trkpt>
      <trkpt lat="45.18969" lon="5.58436">
        <ele>1529.2</ele>
        <time>2007-05-21T07:02:51Z</time>
      </trkpt>
      <trkpt lat="45.18986" lon="5.58451">
        <ele>1532</ele>
        <time>2007-05-21T07:02:59Z</time>
      </trkpt>
      <trkpt lat="45.19009" lon="5.58471">
        <ele>1534.3</ele>
        <time>2007-05-21T07:03:10Z</time>
      </trkpt>
      <trkpt lat="45.19052" lon="5.58533">
        <ele>1543.6</ele>
        <time>2007-05-21T07:03:35Z</time>
      </trkpt>
      <trkpt lat="45.19066" lon="5.58552">
        <ele>1546.7</ele>
        <time>2007-05-21T07:03:43Z</time>
      </trkpt>
      <trkpt lat="45.19085" lon="5.5858">
        <ele>1550.5</ele>
        <time>2007-05-21T07:03:54Z</time>
      </trkpt>
      <trkpt lat="45.191" lon="5.586">
        <ele>1553.5</ele>
        <time>2007-05-21T07:04:03Z</time>
      </trkpt>
      <trkpt lat="45.19113" lon="5.58622">
        <ele>1556.3</ele>
        <time>2007-05-21T07:04:11Z</time>
      </trkpt>
      <trkpt lat="45.19128" lon="5.58661">
        <ele>1560.4</ele>
        <time>2007-05-21T07:04:23Z</time>
      </trkpt>
      <trkpt lat="45.19158" lon="5.58717">
        <ele>1565.2</ele>
        <time>2007-05-21T07:04:43Z</time>
      </trkpt>
      <trkpt lat="45.19174" lon="5.58735">
        <ele>1565.4</ele>
        <time>2007-05-21T07:04:52Z</time>
      </trkpt>
      <trkpt lat="45.19192" lon="5.5876">
        <ele>1567.7</ele>
        <time>2007-05-21T07:05:02Z</time>
      </trkpt>
      <trkpt lat="45.1921" lon="5.58792">
        <ele>1571.9</ele>
        <time>2007-05-21T07:05:14Z</time>
      </trkpt>
      <trkpt lat="45.19241" lon="5.58814">
        <ele>1573.3</ele>
        <time>2007-05-21T07:05:28Z</time>
      </trkpt>
      <trkpt lat="45.19273" lon="5.58842">
        <ele>1575.8</ele>
        <time>2007-05-21T07:05:43Z</time>
      </trkpt>
      <trkpt lat="45.19318" lon="5.58893">
        <ele>1580.2</ele>
        <time>2007-05-21T07:06:07Z</time>
      </trkpt>
      <trkpt lat="45.19338" lon="5.58901">
        <ele>1581.6</ele>
        <time>2007-05-21T07:06:15Z</time>
      </trkpt>
      <trkpt lat="45.19369" lon="5.58885">
        <ele>1584.1</ele>
        <time>2007-05-21T07:06:29Z</time>
      </trkpt>
      <trkpt lat="45.19384" lon="5.58867">
        <ele>1583.6</ele>
        <time>2007-05-21T07:06:37Z</time>
      </trkpt>
      <trkpt lat="45.19399" lon="5.58849">
        <ele>1583</ele>
        <time>2007-05-21T07:06:45Z</time>
      </trkpt>
      <trkpt lat="45.19418" lon="5.58834">
        <ele>1583.2</ele>
        <time>2007-05-21T07:06:54Z</time>
      </trkpt>
      <trkpt lat="45.19466" lon="5.5884">
        <ele>1589.5</ele>
        <time>2007-05-21T07:07:13Z</time>
      </trkpt>
      <trkpt lat="45.19486" lon="5.58848">
        <ele>1593.3</ele>
        <time>2007-05-21T07:07:22Z</time>
      </trkpt>
      <trkpt lat="45.19508" lon="5.58858">
        <ele>1597.5</ele>
        <time>2007-05-21T07:07:31Z</time>
      </trkpt>
      <trkpt lat="45.1954" lon="5.58865">
        <ele>1600.6</ele>
        <time>2007-05-21T07:07:45Z</time>
      </trkpt>
      <trkpt lat="45.19561" lon="5.5887">
        <ele>1602.6</ele>
        <time>2007-05-21T07:07:53Z</time>
      </trkpt>
      <trkpt lat="45.19586" lon="5.5888">
        <ele>1605.4</ele>
        <time>2007-05-21T07:08:04Z</time>
      </trkpt>
      <trkpt lat="45.19631" lon="5.58902">
        <ele>1612</ele>
        <time>2007-05-21T07:08:23Z</time>
      </trkpt>
      <trkpt lat="45.19653" lon="5.58916">
        <ele>1615.9</ele>
        <time>2007-05-21T07:08:33Z</time>
      </trkpt>
      <trkpt lat="45.19691" lon="5.58941">
        <ele>1618.9</ele>
        <time>2007-05-21T07:08:50Z</time>
      </trkpt>
      <trkpt lat="45.19713" lon="5.5897">
        <ele>1622.1</ele>
        <time>2007-05-21T07:09:02Z</time>
      </trkpt>
      <trkpt lat="45.19731" lon="5.58997">
        <ele>1625.4</ele>
        <time>2007-05-21T07:09:13Z</time>
      </trkpt>
      <trkpt lat="45.19745" lon="5.59016">
        <ele>1627.4</ele>
        <time>2007-05-21T07:09:21Z</time>
      </trkpt>
      <trkpt lat="45.19769" lon="5.59058">
        <ele>1631.2</ele>
        <time>2007-05-21T07:09:36Z</time>
      </trkpt>
      <trkpt lat="45.19781" lon="5.59082">
        <ele>1633.2</ele>
        <time>2007-05-21T07:09:45Z</time>
      </trkpt>
      <trkpt lat="45.19788" lon="5.5911">
        <ele>1633.7</ele>
        <time>2007-05-21T07:09:54Z</time>
      </trkpt>
      <trkpt lat="45.1979" lon="5.59147">
        <ele>1634.9</ele>
        <time>2007-05-21T07:10:04Z</time>
      </trkpt>
      <trkpt lat="45.19792" lon="5.59177">
        <ele>1634.8</ele>
        <time>2007-05-21T07:10:13Z</time>
      </trkpt>
      <trkpt lat="45.19791" lon="5.59195">
        <ele>1633.7</ele>
        <time>2007-05-21T07:10:22Z</time>
      </trkpt>
      <trkpt lat="45.1973" lon="5.59184">
        <ele>1639.5</ele>
        <time>2007-05-21T07:10:46Z</time>
      </trkpt>
      <trkpt lat="45.19707" lon="5.59175">
        <ele>1644</ele>
        <time>2007-05-21T07:10:56Z</time>
      </trkpt>
      <trkpt lat="45.19688" lon="5.59166">
        <ele>1648.4</ele>
        <time>2007-05-21T07:11:04Z</time>
      </trkpt>
      <trkpt lat="45.19668" lon="5.59163">
        <ele>1651.5</ele>
        <time>2007-05-21T07:11:12Z</time>
      </trkpt>
      <trkpt lat="45.19645" lon="5.59165">
        <ele>1653.1</ele>
        <time>2007-05-21T07:11:21Z</time>
      </trkpt>
      <trkpt lat="45.1961" lon="5.59173">
        <ele>1654</ele>
        <time>2007-05-21T07:11:36Z</time>
      </trkpt>
      <trkpt lat="45.19555" lon="5.59188">
        <ele>1654.4</ele>
        <time>2007-05-21T07:11:58Z</time>
      </trkpt>
      <trkpt lat="45.19528" lon="5.59198">
        <ele>1655.4</ele>
        <time>2007-05-21T07:12:10Z</time>
      </trkpt>
      <trkpt lat="45.19488" lon="5.59212">
        <ele>1656.6</ele>
        <time>2007-05-21T07:12:26Z</time>
      </trkpt>
      <trkpt lat="45.1946" lon="5.59228">
        <ele>1654.9</ele>
        <time>2007-05-21T07:12:38Z</time>
      </trkpt>
      <trkpt lat="45.1941" lon="5.59244">
        <ele>1653.7</ele>
        <time>2007-05-21T07:12:59Z</time>
      </trkpt>
      <trkpt lat="45.19367" lon="5.59245">
        <ele>1648.6</ele>
        <time>2007-05-21T07:13:16Z</time>
      </trkpt>
      <trkpt lat="45.19301" lon="5.5923">
        <ele>1642.1</ele>
        <time>2007-05-21T07:13:43Z</time>
      </trkpt>
      <trkpt lat="45.1926" lon="5.59222">
        <ele>1640.3</ele>
        <time>2007-05-21T07:14:00Z</time>
      </trkpt>
      <trkpt lat="45.19236" lon="5.59215">
        <ele>1640.5</ele>
        <time>2007-05-21T07:14:09Z</time>
      </trkpt>
      <trkpt lat="45.19201" lon="5.59203">
        <ele>1644</ele>
        <time>2007-05-21T07:14:24Z</time>
      </trkpt>
      <trkpt lat="45.19178" lon="5.59196">
        <ele>1647.6</ele>
        <time>2007-05-21T07:14:33Z</time>
      </trkpt>
      <trkpt lat="45.1915" lon="5.59188">
        <ele>1652.8</ele>
        <time>2007-05-21T07:14:45Z</time>
      </trkpt>
      <trkpt lat="45.19095" lon="5.59167">
        <ele>1667.1</ele>
        <time>2007-05-21T07:15:08Z</time>
      </trkpt>
      <trkpt lat="45.19076" lon="5.5916">
        <ele>1669.6</ele>
        <time>2007-05-21T07:15:16Z</time>
      </trkpt>
      <trkpt lat="45.19059" lon="5.59149">
        <ele>1671.5</ele>
        <time>2007-05-21T07:15:23Z</time>
      </trkpt>
      <trkpt lat="45.19035" lon="5.5914">
        <ele>1674.8</ele>
        <time>2007-05-21T07:15:33Z</time>
      </trkpt>
      <trkpt lat="45.19012" lon="5.59138">
        <ele>1677.5</ele>
        <time>2007-05-21T07:15:42Z</time>
      </trkpt>
      <trkpt lat="45.18989" lon="5.59137">
        <ele>1679.9</ele>
        <time>2007-05-21T07:15:52Z</time>
      </trkpt>
      <trkpt lat="45.18924" lon="5.5914">
        <ele>1684.3</ele>
        <time>2007-05-21T07:16:18Z</time>
      </trkpt>
      <trkpt lat="45.18892" lon="5.59143">
        <ele>1686.1</ele>
        <time>2007-05-21T07:16:31Z</time>
      </trkpt>
      <trkpt lat="45.18872" lon="5.59134">
        <ele>1689.1</ele>
        <time>2007-05-21T07:16:39Z</time>
      </trkpt>
      <trkpt lat="45.18853" lon="5.5914">
        <ele>1689.4</ele>
        <time>2007-05-21T07:16:47Z</time>
      </trkpt>
      <trkpt lat="45.18834" lon="5.59143">
        <ele>1690.1</ele>
        <time>2007-05-21T07:16:55Z</time>
      </trkpt>
      <trkpt lat="45.18812" lon="5.59156">
        <ele>1691.7</ele>
        <time>2007-05-21T07:17:05Z</time>
      </trkpt>
      <trkpt lat="45.1878" lon="5.59191">
        <ele>1689.7</ele>
        <time>2007-05-21T07:17:24Z</time>
      </trkpt>
      <trkpt lat="45.18759" lon="5.59193">
        <ele>1695.1</ele>
        <time>2007-05-21T07:17:33Z</time>
      </trkpt>
      <trkpt lat="45.18741" lon="5.59211">
        <ele>1694.6</ele>
        <time>2007-05-21T07:17:41Z</time>
      </trkpt>
      <trkpt lat="45.18723" lon="5.59227">
        <ele>1693.3</ele>
        <time>2007-05-21T07:17:50Z</time>
      </trkpt>
      <trkpt lat="45.18709" lon="5.59247">
        <ele>1690.6</ele>
        <time>2007-05-21T07:17:58Z</time>
      </trkpt>
      <trkpt lat="45.18678" lon="5.59258">
        <ele>1690.4</ele>
        <time>2007-05-21T07:18:12Z</time>
      </trkpt>
      <trkpt lat="45.18638" lon="5.59233">
        <ele>1691.7</ele>
        <time>2007-05-21T07:18:30Z</time>
      </trkpt>
      <trkpt lat="45.18635" lon="5.59225">
        <ele>1693.3</ele>
        <time>2007-05-21T07:18:46Z</time>
      </trkpt>
      <trkpt lat="45.18619" lon="5.59199">
        <ele>1697.8</ele>
        <time>2007-05-21T07:18:55Z</time>
      </trkpt>
      <trkpt lat="45.18602" lon="5.59172">
        <ele>1704.5</ele>
        <time>2007-05-21T07:19:06Z</time>
      </trkpt>
      <trkpt lat="45.18578" lon="5.59151">
        <ele>1703.4</ele>
        <time>2007-05-21T07:19:17Z</time>
      </trkpt>
      <trkpt lat="45.18568" lon="5.59124">
        <ele>1703.1</ele>
        <time>2007-05-21T07:19:26Z</time>
      </trkpt>
      <trkpt lat="45.18534" lon="5.59086">
        <ele>1698.8</ele>
        <time>2007-05-21T07:19:43Z</time>
      </trkpt>
      <trkpt lat="45.1851" lon="5.5906">
        <ele>1695.1</ele>
        <time>2007-05-21T07:19:56Z</time>
      </trkpt>
      <trkpt lat="45.18491" lon="5.5904">
        <ele>1691.3</ele>
        <time>2007-05-21T07:20:05Z</time>
      </trkpt>
      <trkpt lat="45.1848" lon="5.59005">
        <ele>1693.1</ele>
        <time>2007-05-21T07:20:16Z</time>
      </trkpt>
      <trkpt lat="45.18455" lon="5.5897">
        <ele>1687.1</ele>
        <time>2007-05-21T07:20:30Z</time>
      </trkpt>
      <trkpt lat="45.18432" lon="5.58946">
        <ele>1683.8</ele>
        <time>2007-05-21T07:20:42Z</time>
      </trkpt>
      <trkpt lat="45.1838" lon="5.58893">
        <ele>1675.1</ele>
        <time>2007-05-21T07:21:08Z</time>
      </trkpt>
      <trkpt lat="45.18342" lon="5.58848">
        <ele>1673.9</ele>
        <time>2007-05-21T07:21:28Z</time>
      </trkpt>
      <trkpt lat="45.18294" lon="5.58814">
        <ele>1664.7</ele>
        <time>2007-05-21T07:21:50Z</time>
      </trkpt>
      <trkpt lat="45.18267" lon="5.58801">
        <ele>1659.3</ele>
        <time>2007-05-21T07:22:01Z</time>
      </trkpt>
      <trkpt lat="45.18251" lon="5.58783">
        <ele>1659.5</ele>
        <time>2007-05-21T07:22:09Z</time>
      </trkpt>
      <trkpt lat="45.1821" lon="5.58758">
        <ele>1657.7</ele>
        <time>2007-05-21T07:22:28Z</time>
      </trkpt>
      <trkpt lat="45.1815" lon="5.58717">
        <ele>1654.1</ele>
        <time>2007-05-21T07:22:54Z</time>
      </trkpt>
      <trkpt lat="45.18109" lon="5.58691">
        <ele>1657.4</ele>
        <time>2007-05-21T07:23:12Z</time>
      </trkpt>
      <trkpt lat="45.1808" lon="5.5867">
        <ele>1664</ele>
        <time>2007-05-21T07:23:25Z</time>
      </trkpt>
      <trkpt lat="45.18037" lon="5.58641">
        <ele>1657.4</ele>
        <time>2007-05-21T07:23:44Z</time>
      </trkpt>
      <trkpt lat="45.18012" lon="5.58626">
        <ele>1654.3</ele>
        <time>2007-05-21T07:23:55Z</time>
      </trkpt>
      <trkpt lat="45.17985" lon="5.58607">
        <ele>1653.7</ele>
        <time>2007-05-21T07:24:07Z</time>
      </trkpt>
      <trkpt lat="45.17933" lon="5.5858">
        <ele>1658.6</ele>
        <time>2007-05-21T07:24:31Z</time>
      </trkpt>
      <trkpt lat="45.17896" lon="5.58578">
        <ele>1661.6</ele>
        <time>2007-05-21T07:24:46Z</time>
      </trkpt>
      <trkpt lat="45.17868" lon="5.58583">
        <ele>1664.9</ele>
        <time>2007-05-21T07:24:58Z</time>
      </trkpt>
      <trkpt lat="45.17848" lon="5.58605">
        <ele>1660.5</ele>
        <time>2007-05-21T07:25:09Z</time>
      </trkpt>
      <trkpt lat="45.1783" lon="5.58614">
        <ele>1660.2</ele>
        <time>2007-05-21T07:25:17Z</time>
      </trkpt>
      <trkpt lat="45.17795" lon="5.58626">
        <ele>1660.6</ele>
        <time>2007-05-21T07:25:31Z</time>
      </trkpt>
      <trkpt lat="45.17741" lon="5.5864">
        <ele>1664.2</ele>
        <time>2007-05-21T07:25:54Z</time>
      </trkpt>
      <trkpt lat="45.17721" lon="5.58646">
        <ele>1665.4</ele>
        <time>2007-05-21T07:26:04Z</time>
      </trkpt>
      <trkpt lat="45.1769" lon="5.5865">
        <ele>1668.3</ele>
        <time>2007-05-21T07:26:17Z</time>
      </trkpt>
      <trkpt lat="45.17661" lon="5.58638">
        <ele>1672.8</ele>
        <time>2007-05-21T07:26:29Z</time>
      </trkpt>
      <trkpt lat="45.1764" lon="5.58629">
        <ele>1673.6</ele>
        <time>2007-05-21T07:26:38Z</time>
      </trkpt>
      <trkpt lat="45.17618" lon="5.58619">
        <ele>1675.3</ele>
        <time>2007-05-21T07:26:47Z</time>
      </trkpt>
      <trkpt lat="45.17565" lon="5.58584">
        <ele>1682.5</ele>
        <time>2007-05-21T07:27:11Z</time>
      </trkpt>
      <trkpt lat="45.17543" lon="5.58584">
        <ele>1678.5</ele>
        <time>2007-05-21T07:27:20Z</time>
      </trkpt>
      <trkpt lat="45.17525" lon="5.58563">
        <ele>1677.8</ele>
        <time>2007-05-21T07:27:29Z</time>
      </trkpt>
      <trkpt lat="45.17498" lon="5.58552">
        <ele>1675.9</ele>
        <time>2007-05-21T07:27:41Z</time>
      </trkpt>
      <trkpt lat="45.17459" lon="5.58545">
        <ele>1670.2</ele>
        <time>2007-05-21T07:27:57Z</time>
      </trkpt>
      <trkpt lat="45.17436" lon="5.58533">
        <ele>1669.1</ele>
        <time>2007-05-21T07:28:07Z</time>
      </trkpt>
      <trkpt lat="45.17389" lon="5.58498">
        <ele>1664.9</ele>
        <time>2007-05-21T07:28:28Z</time>
      </trkpt>
      <trkpt lat="45.1737" lon="5.58482">
        <ele>1660.3</ele>
        <time>2007-05-21T07:28:37Z</time>
      </trkpt>
      <trkpt lat="45.17345" lon="5.58471">
        <ele>1653.9</ele>
        <time>2007-05-21T07:28:48Z</time>
      </trkpt>
      <trkpt lat="45.17323" lon="5.58463">
        <ele>1649.4</ele>
        <time>2007-05-21T07:28:57Z</time>
      </trkpt>
      <trkpt lat="45.17295" lon="5.58435">
        <ele>1648.9</ele>
        <time>2007-05-21T07:29:11Z</time>
      </trkpt>
      <trkpt lat="45.17277" lon="5.5842">
        <ele>1648.3</ele>
        <time>2007-05-21T07:29:19Z</time>
      </trkpt>
      <trkpt lat="45.17222" lon="5.58404">
        <ele>1636.9</ele>
        <time>2007-05-21T07:29:42Z</time>
      </trkpt>
      <trkpt lat="45.17203" lon="5.58394">
        <ele>1632.7</ele>
        <time>2007-05-21T07:29:50Z</time>
      </trkpt>
      <trkpt lat="45.17176" lon="5.58396">
        <ele>1627</ele>
        <time>2007-05-21T07:30:01Z</time>
      </trkpt>
      <trkpt lat="45.17153" lon="5.58393">
        <ele>1624.6</ele>
        <time>2007-05-21T07:30:10Z</time>
      </trkpt>
      <trkpt lat="45.1712" lon="5.58379">
        <ele>1625.4</ele>
        <time>2007-05-21T07:30:24Z</time>
      </trkpt>
      <trkpt lat="45.17104" lon="5.58373">
        <ele>1626.4</ele>
        <time>2007-05-21T07:30:35Z</time>
      </trkpt>
      <trkpt lat="45.17138" lon="5.58407">
        <ele>1623.3</ele>
        <time>2007-05-21T07:30:51Z</time>
      </trkpt>
      <trkpt lat="45.17158" lon="5.5843">
        <ele>1620.3</ele>
        <time>2007-05-21T07:31:02Z</time>
      </trkpt>
      <trkpt lat="45.17181" lon="5.5845">
        <ele>1618.6</ele>
        <time>2007-05-21T07:31:13Z</time>
      </trkpt>
      <trkpt lat="45.17206" lon="5.58461">
        <ele>1621.2</ele>
        <time>2007-05-21T07:31:24Z</time>
      </trkpt>
      <trkpt lat="45.17235" lon="5.58482">
        <ele>1622.2</ele>
        <time>2007-05-21T07:31:37Z</time>
      </trkpt>
      <trkpt lat="45.17262" lon="5.5852">
        <ele>1618.8</ele>
        <time>2007-05-21T07:31:52Z</time>
      </trkpt>
      <trkpt lat="45.17287" lon="5.58588">
        <ele>1607</ele>
        <time>2007-05-21T07:32:14Z</time>
      </trkpt>
      <trkpt lat="45.17337" lon="5.58632">
        <ele>1608.2</ele>
        <time>2007-05-21T07:32:38Z</time>
      </trkpt>
      <trkpt lat="45.17358" lon="5.5865">
        <ele>1608.8</ele>
        <time>2007-05-21T07:32:48Z</time>
      </trkpt>
      <trkpt lat="45.17387" lon="5.58667">
        <ele>1610.2</ele>
        <time>2007-05-21T07:33:01Z</time>
      </trkpt>
      <trkpt lat="45.17406" lon="5.58679">
        <ele>1611.7</ele>
        <time>2007-05-21T07:33:10Z</time>
      </trkpt>
      <trkpt lat="45.17424" lon="5.58692">
        <ele>1611.9</ele>
        <time>2007-05-21T07:33:18Z</time>
      </trkpt>
      <trkpt lat="45.17462" lon="5.58723">
        <ele>1609.7</ele>
        <time>2007-05-21T07:33:36Z</time>
      </trkpt>
      <trkpt lat="45.17488" lon="5.5874">
        <ele>1607.4</ele>
        <time>2007-05-21T07:33:48Z</time>
      </trkpt>
      <trkpt lat="45.17508" lon="5.58758">
        <ele>1604.8</ele>
        <time>2007-05-21T07:33:58Z</time>
      </trkpt>
      <trkpt lat="45.17512" lon="5.58789">
        <ele>1600.1</ele>
        <time>2007-05-21T07:34:07Z</time>
      </trkpt>
      <trkpt lat="45.17538" lon="5.58821">
        <ele>1595.9</ele>
        <time>2007-05-21T07:34:21Z</time>
      </trkpt>
      <trkpt lat="45.17558" lon="5.58851">
        <ele>1592.7</ele>
        <time>2007-05-21T07:34:33Z</time>
      </trkpt>
      <trkpt lat="45.17588" lon="5.58909">
        <ele>1588.9</ele>
        <time>2007-05-21T07:34:54Z</time>
      </trkpt>
      <trkpt lat="45.17614" lon="5.58929">
        <ele>1588.8</ele>
        <time>2007-05-21T07:35:06Z</time>
      </trkpt>
      <trkpt lat="45.17647" lon="5.58941">
        <ele>1589.1</ele>
        <time>2007-05-21T07:35:20Z</time>
      </trkpt>
      <trkpt lat="45.17679" lon="5.58958">
        <ele>1587.4</ele>
        <time>2007-05-21T07:35:34Z</time>
      </trkpt>
      <trkpt lat="45.17718" lon="5.58981">
        <ele>1582.9</ele>
        <time>2007-05-21T07:35:51Z</time>
      </trkpt>
      <trkpt lat="45.17758" lon="5.58994">
        <ele>1579.1</ele>
        <time>2007-05-21T07:36:07Z</time>
      </trkpt>
      <trkpt lat="45.17808" lon="5.58992">
        <ele>1575.8</ele>
        <time>2007-05-21T07:36:28Z</time>
      </trkpt>
      <trkpt lat="45.17854" lon="5.58986">
        <ele>1574.1</ele>
        <time>2007-05-21T07:36:46Z</time>
      </trkpt>
      <trkpt lat="45.1789" lon="5.58986">
        <ele>1573</ele>
        <time>2007-05-21T07:37:01Z</time>
      </trkpt>
      <trkpt lat="45.17922" lon="5.5901">
        <ele>1569.8</ele>
        <time>2007-05-21T07:37:16Z</time>
      </trkpt>
      <trkpt lat="45.17944" lon="5.59017">
        <ele>1566.5</ele>
        <time>2007-05-21T07:37:25Z</time>
      </trkpt>
      <trkpt lat="45.17989" lon="5.59026">
        <ele>1559.5</ele>
        <time>2007-05-21T07:37:43Z</time>
      </trkpt>
      <trkpt lat="45.18023" lon="5.5906">
        <ele>1554.7</ele>
        <time>2007-05-21T07:38:00Z</time>
      </trkpt>
      <trkpt lat="45.18049" lon="5.59072">
        <ele>1555.9</ele>
        <time>2007-05-21T07:38:11Z</time>
      </trkpt>
      <trkpt lat="45.18067" lon="5.59087">
        <ele>1556.8</ele>
        <time>2007-05-21T07:38:20Z</time>
      </trkpt>
      <trkpt lat="45.18087" lon="5.59106">
        <ele>1557.9</ele>
        <time>2007-05-21T07:38:30Z</time>
      </trkpt>
      <trkpt lat="45.18109" lon="5.59128">
        <ele>1559.4</ele>
        <time>2007-05-21T07:38:41Z</time>
      </trkpt>
      <trkpt lat="45.18132" lon="5.59136">
        <ele>1561.9</ele>
        <time>2007-05-21T07:38:50Z</time>
      </trkpt>
      <trkpt lat="45.18203" lon="5.59173">
        <ele>1565.1</ele>
        <time>2007-05-21T07:39:21Z</time>
      </trkpt>
      <trkpt lat="45.18271" lon="5.5923">
        <ele>1561.6</ele>
        <time>2007-05-21T07:39:53Z</time>
      </trkpt>
      <trkpt lat="45.18288" lon="5.59249">
        <ele>1561.1</ele>
        <time>2007-05-21T07:40:02Z</time>
      </trkpt>
      <trkpt lat="45.18302" lon="5.59275">
        <ele>1563.3</ele>
        <time>2007-05-21T07:40:11Z</time>
      </trkpt>
      <trkpt lat="45.18331" lon="5.59287">
        <ele>1567.2</ele>
        <time>2007-05-21T07:40:24Z</time>
      </trkpt>
      <trkpt lat="45.18365" lon="5.59291">
        <ele>1566.7</ele>
        <time>2007-05-21T07:40:38Z</time>
      </trkpt>
      <trkpt lat="45.18409" lon="5.59355">
        <ele>1548.2</ele>
        <time>2007-05-21T07:41:03Z</time>
      </trkpt>
      <trkpt lat="45.18432" lon="5.5939">
        <ele>1552.7</ele>
        <time>2007-05-21T07:41:17Z</time>
      </trkpt>
      <trkpt lat="45.18451" lon="5.59419">
        <ele>1557.3</ele>
        <time>2007-05-21T07:41:28Z</time>
      </trkpt>
      <trkpt lat="45.18476" lon="5.59454">
        <ele>1562.1</ele>
        <time>2007-05-21T07:41:42Z</time>
      </trkpt>
      <trkpt lat="45.18523" lon="5.59494">
        <ele>1566.4</ele>
        <time>2007-05-21T07:42:05Z</time>
      </trkpt>
      <trkpt lat="45.18543" lon="5.59509">
        <ele>1564</ele>
        <time>2007-05-21T07:42:14Z</time>
      </trkpt>
      <trkpt lat="45.18626" lon="5.59528">
        <ele>1569</ele>
        <time>2007-05-21T07:42:48Z</time>
      </trkpt>
      <trkpt lat="45.18688" lon="5.59533">
        <ele>1574.8</ele>
        <time>2007-05-21T07:43:13Z</time>
      </trkpt>
      <trkpt lat="45.18715" lon="5.59538">
        <ele>1573.9</ele>
        <time>2007-05-21T07:43:24Z</time>
      </trkpt>
      <trkpt lat="45.18759" lon="5.59541">
        <ele>1573.8</ele>
        <time>2007-05-21T07:43:42Z</time>
      </trkpt>
      <trkpt lat="45.18802" lon="5.59532">
        <ele>1577.8</ele>
        <time>2007-05-21T07:43:59Z</time>
      </trkpt>
      <trkpt lat="45.18825" lon="5.59537">
        <ele>1579.6</ele>
        <time>2007-05-21T07:44:09Z</time>
      </trkpt>
      <trkpt lat="45.18847" lon="5.59489">
        <ele>1585.1</ele>
        <time>2007-05-21T07:44:30Z</time>
      </trkpt>
      <trkpt lat="45.18859" lon="5.59462">
        <ele>1588.7</ele>
        <time>2007-05-21T07:44:40Z</time>
      </trkpt>
      <trkpt lat="45.18898" lon="5.59449">
        <ele>1591.6</ele>
        <time>2007-05-21T07:44:56Z</time>
      </trkpt>
      <trkpt lat="45.18935" lon="5.59438">
        <ele>1593.8</ele>
        <time>2007-05-21T07:45:12Z</time>
      </trkpt>
      <trkpt lat="45.18958" lon="5.59423">
        <ele>1595.9</ele>
        <time>2007-05-21T07:45:22Z</time>
      </trkpt>
      <trkpt lat="45.1898" lon="5.59404">
        <ele>1598.3</ele>
        <time>2007-05-21T07:45:32Z</time>
      </trkpt>
      <trkpt lat="45.19033" lon="5.59384">
        <ele>1599.1</ele>
        <time>2007-05-21T07:45:55Z</time>
      </trkpt>
      <trkpt lat="45.19081" lon="5.59388">
        <ele>1596.6</ele>
        <time>2007-05-21T07:46:15Z</time>
      </trkpt>
      <trkpt lat="45.19108" lon="5.5939">
        <ele>1598</ele>
        <time>2007-05-21T07:46:26Z</time>
      </trkpt>
      <trkpt lat="45.19139" lon="5.59383">
        <ele>1601.7</ele>
        <time>2007-05-21T07:46:38Z</time>
      </trkpt>
      <trkpt lat="45.19177" lon="5.5938">
        <ele>1605.6</ele>
        <time>2007-05-21T07:46:54Z</time>
      </trkpt>
      <trkpt lat="45.19213" lon="5.59377">
        <ele>1609.9</ele>
        <time>2007-05-21T07:47:09Z</time>
      </trkpt>
      <trkpt lat="45.19274" lon="5.59373">
        <ele>1616</ele>
        <time>2007-05-21T07:47:33Z</time>
      </trkpt>
      <trkpt lat="45.19318" lon="5.59375">
        <ele>1618.9</ele>
        <time>2007-05-21T07:47:51Z</time>
      </trkpt>
      <trkpt lat="45.19344" lon="5.59379">
        <ele>1619.8</ele>
        <time>2007-05-21T07:48:02Z</time>
      </trkpt>
      <trkpt lat="45.19375" lon="5.5938">
        <ele>1620.5</ele>
        <time>2007-05-21T07:48:14Z</time>
      </trkpt>
      <trkpt lat="45.19398" lon="5.59382">
        <ele>1620.8</ele>
        <time>2007-05-21T07:48:24Z</time>
      </trkpt>
      <trkpt lat="45.1943" lon="5.59379">
        <ele>1622</ele>
        <time>2007-05-21T07:48:36Z</time>
      </trkpt>
      <trkpt lat="45.19502" lon="5.59378">
        <ele>1621.6</ele>
        <time>2007-05-21T07:49:06Z</time>
      </trkpt>
      <trkpt lat="45.19531" lon="5.59366">
        <ele>1620.7</ele>
        <time>2007-05-21T07:49:18Z</time>
      </trkpt>
      <trkpt lat="45.1956" lon="5.59339">
        <ele>1620.6</ele>
        <time>2007-05-21T07:49:32Z</time>
      </trkpt>
      <trkpt lat="45.19595" lon="5.59328">
        <ele>1620.7</ele>
        <time>2007-05-21T07:49:47Z</time>
      </trkpt>
      <trkpt lat="45.19627" lon="5.59319">
        <ele>1623.5</ele>
        <time>2007-05-21T07:50:00Z</time>
      </trkpt>
      <trkpt lat="45.19658" lon="5.59308">
        <ele>1625.9</ele>
        <time>2007-05-21T07:50:13Z</time>
      </trkpt>
      <trkpt lat="45.19702" lon="5.59322">
        <ele>1624.7</ele>
        <time>2007-05-21T07:50:31Z</time>
      </trkpt>
      <trkpt lat="45.19721" lon="5.5932">
        <ele>1625.1</ele>
        <time>2007-05-21T07:50:39Z</time>
      </trkpt>
      <trkpt lat="45.19754" lon="5.59302">
        <ele>1626.8</ele>
        <time>2007-05-21T07:50:53Z</time>
      </trkpt>
      <trkpt lat="45.19768" lon="5.59279">
        <ele>1628.2</ele>
        <time>2007-05-21T07:51:02Z</time>
      </trkpt>
      <trkpt lat="45.19788" lon="5.59251">
        <ele>1630.1</ele>
        <time>2007-05-21T07:51:13Z</time>
      </trkpt>
      <trkpt lat="45.19813" lon="5.59236">
        <ele>1629.9</ele>
        <time>2007-05-21T07:51:24Z</time>
      </trkpt>
      <trkpt lat="45.19837" lon="5.59211">
        <ele>1630.3</ele>
        <time>2007-05-21T07:51:43Z</time>
      </trkpt>
      <trkpt lat="45.19849" lon="5.59189">
        <ele>1631.3</ele>
        <time>2007-05-21T07:51:51Z</time>
      </trkpt>
      <trkpt lat="45.19868" lon="5.5918">
        <ele>1631.4</ele>
        <time>2007-05-21T07:52:00Z</time>
      </trkpt>
      <trkpt lat="45.19894" lon="5.59179">
        <ele>1630.9</ele>
        <time>2007-05-21T07:52:10Z</time>
      </trkpt>
      <trkpt lat="45.19931" lon="5.59188">
        <ele>1630.2</ele>
        <time>2007-05-21T07:52:25Z</time>
      </trkpt>
      <trkpt lat="45.19993" lon="5.59191">
        <ele>1631</ele>
        <time>2007-05-21T07:52:50Z</time>
      </trkpt>
      <trkpt lat="45.20068" lon="5.59216">
        <ele>1630.6</ele>
        <time>2007-05-21T07:53:21Z</time>
      </trkpt>
      <trkpt lat="45.20126" lon="5.59222">
        <ele>1633.1</ele>
        <time>2007-05-21T07:53:45Z</time>
      </trkpt>
      <trkpt lat="45.20152" lon="5.59229">
        <ele>1634.1</ele>
        <time>2007-05-21T07:53:55Z</time>
      </trkpt>
      <trkpt lat="45.20176" lon="5.59235">
        <ele>1634.5</ele>
        <time>2007-05-21T07:54:05Z</time>
      </trkpt>
      <trkpt lat="45.20233" lon="5.59252">
        <ele>1633.8</ele>
        <time>2007-05-21T07:54:29Z</time>
      </trkpt>
      <trkpt lat="45.20268" lon="5.59266">
        <ele>1631.8</ele>
        <time>2007-05-21T07:54:44Z</time>
      </trkpt>
      <trkpt lat="45.20336" lon="5.59286">
        <ele>1628.2</ele>
        <time>2007-05-21T07:55:12Z</time>
      </trkpt>
      <trkpt lat="45.20359" lon="5.59296">
        <ele>1627.3</ele>
        <time>2007-05-21T07:55:21Z</time>
      </trkpt>
      <trkpt lat="45.20395" lon="5.59308">
        <ele>1626.3</ele>
        <time>2007-05-21T07:55:36Z</time>
      </trkpt>
      <trkpt lat="45.20443" lon="5.5931">
        <ele>1625.9</ele>
        <time>2007-05-21T07:55:56Z</time>
      </trkpt>
      <trkpt lat="45.20475" lon="5.59321">
        <ele>1625.5</ele>
        <time>2007-05-21T07:56:09Z</time>
      </trkpt>
      <trkpt lat="45.205" lon="5.59298">
        <ele>1626.7</ele>
        <time>2007-05-21T07:56:21Z</time>
      </trkpt>
      <trkpt lat="45.20562" lon="5.59251">
        <ele>1626.7</ele>
        <time>2007-05-21T07:56:50Z</time>
      </trkpt>
      <trkpt lat="45.20587" lon="5.59234">
        <ele>1626</ele>
        <time>2007-05-21T07:57:01Z</time>
      </trkpt>
      <trkpt lat="45.20611" lon="5.5922">
        <ele>1624.8</ele>
        <time>2007-05-21T07:57:12Z</time>
      </trkpt>
      <trkpt lat="45.20653" lon="5.59222">
        <ele>1622.4</ele>
        <time>2007-05-21T07:57:28Z</time>
      </trkpt>
      <trkpt lat="45.207" lon="5.5921">
        <ele>1621.5</ele>
        <time>2007-05-21T07:57:49Z</time>
      </trkpt>
      <trkpt lat="45.20713" lon="5.59178">
        <ele>1622.6</ele>
        <time>2007-05-21T07:57:59Z</time>
      </trkpt>
      <trkpt lat="45.20762" lon="5.59143">
        <ele>1623.4</ele>
        <time>2007-05-21T07:58:22Z</time>
      </trkpt>
      <trkpt lat="45.2079" lon="5.59128">
        <ele>1623.2</ele>
        <time>2007-05-21T07:58:34Z</time>
      </trkpt>
      <trkpt lat="45.20821" lon="5.59112">
        <ele>1622.9</ele>
        <time>2007-05-21T07:58:48Z</time>
      </trkpt>
      <trkpt lat="45.20845" lon="5.5911">
        <ele>1622.9</ele>
        <time>2007-05-21T07:58:58Z</time>
      </trkpt>
      <trkpt lat="45.20868" lon="5.59117">
        <ele>1623.1</ele>
        <time>2007-05-21T07:59:07Z</time>
      </trkpt>
      <trkpt lat="45.20891" lon="5.59141">
        <ele>1622.7</ele>
        <time>2007-05-21T07:59:19Z</time>
      </trkpt>
      <trkpt lat="45.20936" lon="5.59173">
        <ele>1622</ele>
        <time>2007-05-21T07:59:40Z</time>
      </trkpt>
      <trkpt lat="45.20962" lon="5.59171">
        <ele>1622.8</ele>
        <time>2007-05-21T07:59:50Z</time>
      </trkpt>
      <trkpt lat="45.20987" lon="5.59158">
        <ele>1624</ele>
        <time>2007-05-21T08:00:02Z</time>
      </trkpt>
      <trkpt lat="45.2099" lon="5.59118">
        <ele>1625.5</ele>
        <time>2007-05-21T08:00:13Z</time>
      </trkpt>
      <trkpt lat="45.21002" lon="5.59083">
        <ele>1627</ele>
        <time>2007-05-21T08:00:24Z</time>
      </trkpt>
      <trkpt lat="45.21018" lon="5.59061">
        <ele>1625.2</ele>
        <time>2007-05-21T08:00:34Z</time>
      </trkpt>
      <trkpt lat="45.21062" lon="5.59024">
        <ele>1626.4</ele>
        <time>2007-05-21T08:00:55Z</time>
      </trkpt>
      <trkpt lat="45.21073" lon="5.58995">
        <ele>1627.4</ele>
        <time>2007-05-21T08:01:05Z</time>
      </trkpt>
      <trkpt lat="45.21088" lon="5.58962">
        <ele>1629.6</ele>
        <time>2007-05-21T08:01:16Z</time>
      </trkpt>
      <trkpt lat="45.21111" lon="5.58957">
        <ele>1632.6</ele>
        <time>2007-05-21T08:01:27Z</time>
      </trkpt>
      <trkpt lat="45.21124" lon="5.58992">
        <ele>1634</ele>
        <time>2007-05-21T08:01:39Z</time>
      </trkpt>
      <trkpt lat="45.21147" lon="5.59012">
        <ele>1635.9</ele>
        <time>2007-05-21T08:01:50Z</time>
      </trkpt>
      <trkpt lat="45.21215" lon="5.59027">
        <ele>1636.6</ele>
        <time>2007-05-21T08:02:18Z</time>
      </trkpt>
      <trkpt lat="45.21239" lon="5.59029">
        <ele>1636.4</ele>
        <time>2007-05-21T08:02:28Z</time>
      </trkpt>
      <trkpt lat="45.21258" lon="5.59014">
        <ele>1636.2</ele>
        <time>2007-05-21T08:02:37Z</time>
      </trkpt>
      <trkpt lat="45.21286" lon="5.58999">
        <ele>1634.9</ele>
        <time>2007-05-21T08:02:49Z</time>
      </trkpt>
      <trkpt lat="45.21312" lon="5.58991">
        <ele>1633.6</ele>
        <time>2007-05-21T08:03:00Z</time>
      </trkpt>
      <trkpt lat="45.21337" lon="5.59007">
        <ele>1631.7</ele>
        <time>2007-05-21T08:03:11Z</time>
      </trkpt>
      <trkpt lat="45.21395" lon="5.59058">
        <ele>1628.2</ele>
        <time>2007-05-21T08:03:39Z</time>
      </trkpt>
      <trkpt lat="45.21441" lon="5.59089">
        <ele>1627</ele>
        <time>2007-05-21T08:04:00Z</time>
      </trkpt>
      <trkpt lat="45.2146" lon="5.59121">
        <ele>1626.3</ele>
        <time>2007-05-21T08:04:12Z</time>
      </trkpt>
      <trkpt lat="45.21488" lon="5.59154">
        <ele>1623.6</ele>
        <time>2007-05-21T08:04:26Z</time>
      </trkpt>
      <trkpt lat="45.21515" lon="5.59144">
        <ele>1621.8</ele>
        <time>2007-05-21T08:04:39Z</time>
      </trkpt>
      <trkpt lat="45.21544" lon="5.59152">
        <ele>1618.1</ele>
        <time>2007-05-21T08:04:51Z</time>
      </trkpt>
      <trkpt lat="45.21591" lon="5.59176">
        <ele>1612.8</ele>
        <time>2007-05-21T08:05:11Z</time>
      </trkpt>
      <trkpt lat="45.21612" lon="5.59196">
        <ele>1610.8</ele>
        <time>2007-05-21T08:05:22Z</time>
      </trkpt>
      <trkpt lat="45.2163" lon="5.5922">
        <ele>1608.4</ele>
        <time>2007-05-21T08:05:32Z</time>
      </trkpt>
      <trkpt lat="45.21647" lon="5.59255">
        <ele>1605</ele>
        <time>2007-05-21T08:05:44Z</time>
      </trkpt>
      <trkpt lat="45.21661" lon="5.59294">
        <ele>1602</ele>
        <time>2007-05-21T08:05:57Z</time>
      </trkpt>
      <trkpt lat="45.21661" lon="5.59334">
        <ele>1602.4</ele>
        <time>2007-05-21T08:06:08Z</time>
      </trkpt>
      <trkpt lat="45.21719" lon="5.59422">
        <ele>1590.6</ele>
        <time>2007-05-21T08:06:47Z</time>
      </trkpt>
      <trkpt lat="45.21739" lon="5.59398">
        <ele>1590</ele>
        <time>2007-05-21T08:06:59Z</time>
      </trkpt>
      <trkpt lat="45.21752" lon="5.59375">
        <ele>1590.2</ele>
        <time>2007-05-21T08:07:07Z</time>
      </trkpt>
      <trkpt lat="45.21768" lon="5.59345">
        <ele>1593.4</ele>
        <time>2007-05-21T08:07:18Z</time>
      </trkpt>
      <trkpt lat="45.21782" lon="5.59305">
        <ele>1595.5</ele>
        <time>2007-05-21T08:07:31Z</time>
      </trkpt>
      <trkpt lat="45.21799" lon="5.5928">
        <ele>1596.6</ele>
        <time>2007-05-21T08:07:42Z</time>
      </trkpt>
      <trkpt lat="45.21844" lon="5.59272">
        <ele>1599.2</ele>
        <time>2007-05-21T08:08:01Z</time>
      </trkpt>
      <trkpt lat="45.21874" lon="5.59264">
        <ele>1599</ele>
        <time>2007-05-21T08:08:13Z</time>
      </trkpt>
      <trkpt lat="45.21901" lon="5.59267">
        <ele>1599.5</ele>
        <time>2007-05-21T08:08:24Z</time>
      </trkpt>
      <trkpt lat="45.21931" lon="5.59253">
        <ele>1599.5</ele>
        <time>2007-05-21T08:08:37Z</time>
      </trkpt>
      <trkpt lat="45.21957" lon="5.59256">
        <ele>1602.1</ele>
        <time>2007-05-21T08:08:47Z</time>
      </trkpt>
      <trkpt lat="45.21981" lon="5.59253">
        <ele>1603.8</ele>
        <time>2007-05-21T08:08:57Z</time>
      </trkpt>
      <trkpt lat="45.22044" lon="5.5923">
        <ele>1604.4</ele>
        <time>2007-05-21T08:09:24Z</time>
      </trkpt>
      <trkpt lat="45.22067" lon="5.59236">
        <ele>1607.1</ele>
        <time>2007-05-21T08:09:33Z</time>
      </trkpt>
      <trkpt lat="45.22096" lon="5.59236">
        <ele>1608.1</ele>
        <time>2007-05-21T08:09:45Z</time>
      </trkpt>
      <trkpt lat="45.22122" lon="5.59228">
        <ele>1606.7</ele>
        <time>2007-05-21T08:09:56Z</time>
      </trkpt>
      <trkpt lat="45.2215" lon="5.59219">
        <ele>1605.7</ele>
        <time>2007-05-21T08:10:07Z</time>
      </trkpt>
      <trkpt lat="45.22177" lon="5.59229">
        <ele>1607.6</ele>
        <time>2007-05-21T08:10:20Z</time>
      </trkpt>
      <trkpt lat="45.22233" lon="5.59296">
        <ele>1617.8</ele>
        <time>2007-05-21T08:10:49Z</time>
      </trkpt>
      <trkpt lat="45.22251" lon="5.59318">
        <ele>1620.3</ele>
        <time>2007-05-21T08:10:59Z</time>
      </trkpt>
      <trkpt lat="45.22278" lon="5.5934">
        <ele>1621.4</ele>
        <time>2007-05-21T08:11:11Z</time>
      </trkpt>
      <trkpt lat="45.223" lon="5.59356">
        <ele>1620.7</ele>
        <time>2007-05-21T08:11:21Z</time>
      </trkpt>
      <trkpt lat="45.22343" lon="5.59373">
        <ele>1619.3</ele>
        <time>2007-05-21T08:11:39Z</time>
      </trkpt>
      <trkpt lat="45.22365" lon="5.59367">
        <ele>1618.8</ele>
        <time>2007-05-21T08:11:48Z</time>
      </trkpt>
      <trkpt lat="45.22428" lon="5.59373">
        <ele>1617.1</ele>
        <time>2007-05-21T08:12:15Z</time>
      </trkpt>
      <trkpt lat="45.22451" lon="5.59377">
        <ele>1616.2</ele>
        <time>2007-05-21T08:12:24Z</time>
      </trkpt>
      <trkpt lat="45.22477" lon="5.59376">
        <ele>1615.3</ele>
        <time>2007-05-21T08:12:35Z</time>
      </trkpt>
      <trkpt lat="45.22523" lon="5.59385">
        <ele>1613.6</ele>
        <time>2007-05-21T08:12:53Z</time>
      </trkpt>
      <trkpt lat="45.22554" lon="5.59386">
        <ele>1612.7</ele>
        <time>2007-05-21T08:13:06Z</time>
      </trkpt>
      <trkpt lat="45.22577" lon="5.59381">
        <ele>1612.2</ele>
        <time>2007-05-21T08:13:15Z</time>
      </trkpt>
      <trkpt lat="45.22625" lon="5.59386">
        <ele>1611</ele>
        <time>2007-05-21T08:13:35Z</time>
      </trkpt>
      <trkpt lat="45.22656" lon="5.5938">
        <ele>1610.3</ele>
        <time>2007-05-21T08:13:48Z</time>
      </trkpt>
      <trkpt lat="45.22679" lon="5.59378">
        <ele>1610.1</ele>
        <time>2007-05-21T08:13:58Z</time>
      </trkpt>
      <trkpt lat="45.22717" lon="5.59403">
        <ele>1610.1</ele>
        <time>2007-05-21T08:14:15Z</time>
      </trkpt>
      <trkpt lat="45.22743" lon="5.59388">
        <ele>1610.3</ele>
        <time>2007-05-21T08:14:27Z</time>
      </trkpt>
      <trkpt lat="45.22765" lon="5.59372">
        <ele>1611.1</ele>
        <time>2007-05-21T08:14:37Z</time>
      </trkpt>
      <trkpt lat="45.22816" lon="5.59361">
        <ele>1613</ele>
        <time>2007-05-21T08:14:58Z</time>
      </trkpt>
      <trkpt lat="45.22844" lon="5.59379">
        <ele>1613.2</ele>
        <time>2007-05-21T08:15:10Z</time>
      </trkpt>
      <trkpt lat="45.22863" lon="5.59385">
        <ele>1612.8</ele>
        <time>2007-05-21T08:15:19Z</time>
      </trkpt>
      <trkpt lat="45.22892" lon="5.59378">
        <ele>1612.1</ele>
        <time>2007-05-21T08:15:31Z</time>
      </trkpt>
      <trkpt lat="45.22918" lon="5.5936">
        <ele>1611.3</ele>
        <time>2007-05-21T08:15:43Z</time>
      </trkpt>
      <trkpt lat="45.22941" lon="5.59346">
        <ele>1610.9</ele>
        <time>2007-05-21T08:15:53Z</time>
      </trkpt>
      <trkpt lat="45.22996" lon="5.59361">
        <ele>1610.7</ele>
        <time>2007-05-21T08:16:16Z</time>
      </trkpt>
      <trkpt lat="45.23022" lon="5.5938">
        <ele>1609.6</ele>
        <time>2007-05-21T08:16:29Z</time>
      </trkpt>
      <trkpt lat="45.23045" lon="5.594">
        <ele>1609.3</ele>
        <time>2007-05-21T08:16:40Z</time>
      </trkpt>
      <trkpt lat="45.23065" lon="5.594">
        <ele>1608.3</ele>
        <time>2007-05-21T08:16:48Z</time>
      </trkpt>
      <trkpt lat="45.23093" lon="5.59412">
        <ele>1608.5</ele>
        <time>2007-05-21T08:17:00Z</time>
      </trkpt>
      <trkpt lat="45.23124" lon="5.59444">
        <ele>1610.3</ele>
        <time>2007-05-21T08:17:15Z</time>
      </trkpt>
      <trkpt lat="45.23151" lon="5.59505">
        <ele>1615.9</ele>
        <time>2007-05-21T08:17:36Z</time>
      </trkpt>
      <trkpt lat="45.23168" lon="5.59523">
        <ele>1617.2</ele>
        <time>2007-05-21T08:17:45Z</time>
      </trkpt>
      <trkpt lat="45.23191" lon="5.59542">
        <ele>1617.1</ele>
        <time>2007-05-21T08:17:55Z</time>
      </trkpt>
      <trkpt lat="45.23215" lon="5.5957">
        <ele>1617.8</ele>
        <time>2007-05-21T08:18:09Z</time>
      </trkpt>
      <trkpt lat="45.23233" lon="5.59585">
        <ele>1618.9</ele>
        <time>2007-05-21T08:18:17Z</time>
      </trkpt>
      <trkpt lat="45.23251" lon="5.59607">
        <ele>1619.5</ele>
        <time>2007-05-21T08:18:27Z</time>
      </trkpt>
      <trkpt lat="45.23287" lon="5.59641">
        <ele>1622.2</ele>
        <time>2007-05-21T08:18:45Z</time>
      </trkpt>
      <trkpt lat="45.23306" lon="5.59658">
        <ele>1624.5</ele>
        <time>2007-05-21T08:18:54Z</time>
      </trkpt>
      <trkpt lat="45.23319" lon="5.59685">
        <ele>1625.8</ele>
        <time>2007-05-21T08:19:03Z</time>
      </trkpt>
      <trkpt lat="45.23332" lon="5.59716">
        <ele>1626.6</ele>
        <time>2007-05-21T08:19:14Z</time>
      </trkpt>
      <trkpt lat="45.23353" lon="5.59749">
        <ele>1627.9</ele>
        <time>2007-05-21T08:19:27Z</time>
      </trkpt>
      <trkpt lat="45.23378" lon="5.5979">
        <ele>1625.5</ele>
        <time>2007-05-21T08:19:42Z</time>
      </trkpt>
      <trkpt lat="45.23402" lon="5.5984">
        <ele>1604.5</ele>
        <time>2007-05-21T08:20:00Z</time>
      </trkpt>
      <trkpt lat="45.23454" lon="5.59874">
        <ele>1444.6</ele>
        <time>2007-05-21T08:20:30Z</time>
      </trkpt>
      <trkpt lat="45.23527" lon="5.59681">
        <ele>1579.2</ele>
        <time>2007-05-21T08:21:35Z</time>
      </trkpt>
      <trkpt lat="45.23526" lon="5.59654">
        <ele>1596.5</ele>
        <time>2007-05-21T08:21:44Z</time>
      </trkpt>
      <trkpt lat="45.23541" lon="5.59631">
        <ele>1588</ele>
        <time>2007-05-21T08:21:53Z</time>
      </trkpt>
      <trkpt lat="45.23542" lon="5.59597">
        <ele>1604.9</ele>
        <time>2007-05-21T08:22:03Z</time>
      </trkpt>
      <trkpt lat="45.23533" lon="5.59535">
        <ele>1606.3</ele>
        <time>2007-05-21T08:22:22Z</time>
      </trkpt>
      <trkpt lat="45.23518" lon="5.59511">
        <ele>1604.9</ele>
        <time>2007-05-21T08:22:31Z</time>
      </trkpt>
      <trkpt lat="45.23518" lon="5.5949">
        <ele>1601.4</ele>
        <time>2007-05-21T08:22:42Z</time>
      </trkpt>
      <trkpt lat="45.23557" lon="5.59471">
        <ele>1593.9</ele>
        <time>2007-05-21T08:22:58Z</time>
      </trkpt>
      <trkpt lat="45.23553" lon="5.59441">
        <ele>1590.8</ele>
        <time>2007-05-21T08:23:08Z</time>
      </trkpt>
      <trkpt lat="45.23538" lon="5.59413">
        <ele>1587.6</ele>
        <time>2007-05-21T08:23:18Z</time>
      </trkpt>
      <trkpt lat="45.23488" lon="5.5936">
        <ele>1583.1</ele>
        <time>2007-05-21T08:23:43Z</time>
      </trkpt>
      <trkpt lat="45.23455" lon="5.5932">
        <ele>1580.2</ele>
        <time>2007-05-21T08:24:00Z</time>
      </trkpt>
      <trkpt lat="45.23443" lon="5.5929">
        <ele>1578.6</ele>
        <time>2007-05-21T08:24:10Z</time>
      </trkpt>
      <trkpt lat="45.23452" lon="5.59261">
        <ele>1576.4</ele>
        <time>2007-05-21T08:24:19Z</time>
      </trkpt>
      <trkpt lat="45.23471" lon="5.59256">
        <ele>1575.5</ele>
        <time>2007-05-21T08:24:29Z</time>
      </trkpt>
      <trkpt lat="45.23493" lon="5.59264">
        <ele>1575.2</ele>
        <time>2007-05-21T08:24:38Z</time>
      </trkpt>
      <trkpt lat="45.23553" lon="5.5924">
        <ele>1571.2</ele>
        <time>2007-05-21T08:25:04Z</time>
      </trkpt>
      <trkpt lat="45.2358" lon="5.59219">
        <ele>1567.9</ele>
        <time>2007-05-21T08:25:17Z</time>
      </trkpt>
      <trkpt lat="45.23584" lon="5.59188">
        <ele>1563.7</ele>
        <time>2007-05-21T08:25:27Z</time>
      </trkpt>
      <trkpt lat="45.23578" lon="5.59167">
        <ele>1560.9</ele>
        <time>2007-05-21T08:25:37Z</time>
      </trkpt>
      <trkpt lat="45.23613" lon="5.59127">
        <ele>1552.8</ele>
        <time>2007-05-21T08:25:55Z</time>
      </trkpt>
      <trkpt lat="45.23636" lon="5.59114">
        <ele>1551</ele>
        <time>2007-05-21T08:26:05Z</time>
      </trkpt>
      <trkpt lat="45.236" lon="5.59087">
        <ele>1547.3</ele>
        <time>2007-05-21T08:26:33Z</time>
      </trkpt>
      <trkpt lat="45.23598" lon="5.59061">
        <ele>1540.8</ele>
        <time>2007-05-21T08:26:44Z</time>
      </trkpt>
      <trkpt lat="45.23618" lon="5.59039">
        <ele>1537.5</ele>
        <time>2007-05-21T08:26:54Z</time>
      </trkpt>
      <trkpt lat="45.23638" lon="5.5903">
        <ele>1538.3</ele>
        <time>2007-05-21T08:27:03Z</time>
      </trkpt>
      <trkpt lat="45.23657" lon="5.59003">
        <ele>1536.6</ele>
        <time>2007-05-21T08:27:14Z</time>
      </trkpt>
      <trkpt lat="45.23696" lon="5.58967">
        <ele>1534.4</ele>
        <time>2007-05-21T08:27:32Z</time>
      </trkpt>
      <trkpt lat="45.23742" lon="5.58915">
        <ele>1536.1</ele>
        <time>2007-05-21T08:27:56Z</time>
      </trkpt>
      <trkpt lat="45.23762" lon="5.5889">
        <ele>1536.5</ele>
        <time>2007-05-21T08:28:07Z</time>
      </trkpt>
      <trkpt lat="45.2377" lon="5.58853">
        <ele>1534.4</ele>
        <time>2007-05-21T08:28:18Z</time>
      </trkpt>
      <trkpt lat="45.23762" lon="5.58813">
        <ele>1529.6</ele>
        <time>2007-05-21T08:28:30Z</time>
      </trkpt>
      <trkpt lat="45.2376" lon="5.5877">
        <ele>1525.5</ele>
        <time>2007-05-21T08:28:42Z</time>
      </trkpt>
      <trkpt lat="45.23768" lon="5.58706">
        <ele>1517.6</ele>
        <time>2007-05-21T08:29:00Z</time>
      </trkpt>
      <trkpt lat="45.23817" lon="5.58622">
        <ele>1506.7</ele>
        <time>2007-05-21T08:29:32Z</time>
      </trkpt>
      <trkpt lat="45.2386" lon="5.58591">
        <ele>1503.3</ele>
        <time>2007-05-21T08:29:51Z</time>
      </trkpt>
      <trkpt lat="45.23904" lon="5.58575">
        <ele>1504.2</ele>
        <time>2007-05-21T08:30:10Z</time>
      </trkpt>
      <trkpt lat="45.23934" lon="5.58551">
        <ele>1501.3</ele>
        <time>2007-05-21T08:30:23Z</time>
      </trkpt>
      <trkpt lat="45.23984" lon="5.58505">
        <ele>1497.7</ele>
        <time>2007-05-21T08:30:48Z</time>
      </trkpt>
      <trkpt lat="45.24017" lon="5.5849">
        <ele>1498.5</ele>
        <time>2007-05-21T08:31:02Z</time>
      </trkpt>
      <trkpt lat="45.24086" lon="5.58493">
        <ele>1505.9</ele>
        <time>2007-05-21T08:31:30Z</time>
      </trkpt>
      <trkpt lat="45.24107" lon="5.58483">
        <ele>1511.3</ele>
        <time>2007-05-21T08:31:39Z</time>
      </trkpt>
      <trkpt lat="45.24126" lon="5.58455">
        <ele>1514.2</ele>
        <time>2007-05-21T08:31:50Z</time>
      </trkpt>
      <trkpt lat="45.24142" lon="5.58425">
        <ele>1516.1</ele>
        <time>2007-05-21T08:32:01Z</time>
      </trkpt>
      <trkpt lat="45.2414" lon="5.58387">
        <ele>1516.1</ele>
        <time>2007-05-21T08:32:12Z</time>
      </trkpt>
      <trkpt lat="45.24129" lon="5.58351">
        <ele>1513.5</ele>
        <time>2007-05-21T08:32:23Z</time>
      </trkpt>
      <trkpt lat="45.24122" lon="5.58281">
        <ele>1512</ele>
        <time>2007-05-21T08:32:43Z</time>
      </trkpt>
      <trkpt lat="45.24127" lon="5.5825">
        <ele>1514.9</ele>
        <time>2007-05-21T08:32:52Z</time>
      </trkpt>
      <trkpt lat="45.24124" lon="5.58212">
        <ele>1512.3</ele>
        <time>2007-05-21T08:33:03Z</time>
      </trkpt>
      <trkpt lat="45.24134" lon="5.5816">
        <ele>1514.9</ele>
        <time>2007-05-21T08:33:19Z</time>
      </trkpt>
      <trkpt lat="45.24142" lon="5.58128">
        <ele>1514.6</ele>
        <time>2007-05-21T08:33:28Z</time>
      </trkpt>
      <trkpt lat="45.24149" lon="5.58098">
        <ele>1513.7</ele>
        <time>2007-05-21T08:33:37Z</time>
      </trkpt>
      <trkpt lat="45.24167" lon="5.5804">
        <ele>1513.9</ele>
        <time>2007-05-21T08:33:56Z</time>
      </trkpt>
      <trkpt lat="45.2417" lon="5.58008">
        <ele>1511.4</ele>
        <time>2007-05-21T08:34:05Z</time>
      </trkpt>
      <trkpt lat="45.24182" lon="5.57957">
        <ele>1514.1</ele>
        <time>2007-05-21T08:34:20Z</time>
      </trkpt>
      <trkpt lat="45.24181" lon="5.57916">
        <ele>1512.5</ele>
        <time>2007-05-21T08:34:32Z</time>
      </trkpt>
      <trkpt lat="45.24158" lon="5.57886">
        <ele>1510.5</ele>
        <time>2007-05-21T08:34:45Z</time>
      </trkpt>
      <trkpt lat="45.2412" lon="5.57841">
        <ele>1509.5</ele>
        <time>2007-05-21T08:35:05Z</time>
      </trkpt>
      <trkpt lat="45.24062" lon="5.57786">
        <ele>1515.2</ele>
        <time>2007-05-21T08:35:33Z</time>
      </trkpt>
      <trkpt lat="45.24033" lon="5.57766">
        <ele>1519</ele>
        <time>2007-05-21T08:35:46Z</time>
      </trkpt>
      <trkpt lat="45.24011" lon="5.5775">
        <ele>1521.9</ele>
        <time>2007-05-21T08:35:56Z</time>
      </trkpt>
      <trkpt lat="45.2399" lon="5.57763">
        <ele>1518.1</ele>
        <time>2007-05-21T08:36:05Z</time>
      </trkpt>
      <trkpt lat="45.23972" lon="5.57784">
        <ele>1513.9</ele>
        <time>2007-05-21T08:36:14Z</time>
      </trkpt>
      <trkpt lat="45.2394" lon="5.57808">
        <ele>1510.3</ele>
        <time>2007-05-21T08:36:29Z</time>
      </trkpt>
      <trkpt lat="45.2389" lon="5.57774">
        <ele>1520.2</ele>
        <time>2007-05-21T08:36:55Z</time>
      </trkpt>
      <trkpt lat="45.2387" lon="5.57762">
        <ele>1522.1</ele>
        <time>2007-05-21T08:37:03Z</time>
      </trkpt>
      <trkpt lat="45.23849" lon="5.57757">
        <ele>1522.2</ele>
        <time>2007-05-21T08:37:12Z</time>
      </trkpt>
      <trkpt lat="45.23826" lon="5.57746">
        <ele>1523.6</ele>
        <time>2007-05-21T08:37:22Z</time>
      </trkpt>
      <trkpt lat="45.23805" lon="5.57738">
        <ele>1524.1</ele>
        <time>2007-05-21T08:37:30Z</time>
      </trkpt>
      <trkpt lat="45.2378" lon="5.57736">
        <ele>1523</ele>
        <time>2007-05-21T08:37:40Z</time>
      </trkpt>
      <trkpt lat="45.23727" lon="5.57716">
        <ele>1520.6</ele>
        <time>2007-05-21T08:38:02Z</time>
      </trkpt>
      <trkpt lat="45.23687" lon="5.57704">
        <ele>1516.7</ele>
        <time>2007-05-21T08:38:19Z</time>
      </trkpt>
      <trkpt lat="45.23659" lon="5.57704">
        <ele>1512.7</ele>
        <time>2007-05-21T08:38:30Z</time>
      </trkpt>
      <trkpt lat="45.23634" lon="5.5771">
        <ele>1507.2</ele>
        <time>2007-05-21T08:38:41Z</time>
      </trkpt>
      <trkpt lat="45.23596" lon="5.57684">
        <ele>1503.2</ele>
        <time>2007-05-21T08:38:58Z</time>
      </trkpt>
      <trkpt lat="45.2355" lon="5.57659">
        <ele>1499.9</ele>
        <time>2007-05-21T08:39:18Z</time>
      </trkpt>
      <trkpt lat="45.23518" lon="5.57613">
        <ele>1499.9</ele>
        <time>2007-05-21T08:39:37Z</time>
      </trkpt>
      <trkpt lat="45.23474" lon="5.57594">
        <ele>1493.6</ele>
        <time>2007-05-21T08:39:56Z</time>
      </trkpt>
      <trkpt lat="45.23429" lon="5.5757">
        <ele>1487.4</ele>
        <time>2007-05-21T08:40:16Z</time>
      </trkpt>
      <trkpt lat="45.23397" lon="5.57556">
        <ele>1484.6</ele>
        <time>2007-05-21T08:40:29Z</time>
      </trkpt>
      <trkpt lat="45.23362" lon="5.57548">
        <ele>1482.5</ele>
        <time>2007-05-21T08:40:43Z</time>
      </trkpt>
      <trkpt lat="45.23335" lon="5.57535">
        <ele>1480.7</ele>
        <time>2007-05-21T08:40:55Z</time>
      </trkpt>
      <trkpt lat="45.23264" lon="5.57493">
        <ele>1475.6</ele>
        <time>2007-05-21T08:41:26Z</time>
      </trkpt>
      <trkpt lat="45.23238" lon="5.57482">
        <ele>1473.2</ele>
        <time>2007-05-21T08:41:37Z</time>
      </trkpt>
      <trkpt lat="45.23204" lon="5.57503">
        <ele>1468.2</ele>
        <time>2007-05-21T08:41:51Z</time>
      </trkpt>
      <trkpt lat="45.23168" lon="5.57532">
        <ele>1465.5</ele>
        <time>2007-05-21T08:42:08Z</time>
      </trkpt>
      <trkpt lat="45.23148" lon="5.57565">
        <ele>1464</ele>
        <time>2007-05-21T08:42:20Z</time>
      </trkpt>
      <trkpt lat="45.23136" lon="5.57596">
        <ele>1463.8</ele>
        <time>2007-05-21T08:42:30Z</time>
      </trkpt>
      <trkpt lat="45.23101" lon="5.57609">
        <ele>1458.1</ele>
        <time>2007-05-21T08:42:50Z</time>
      </trkpt>
      <trkpt lat="45.23101" lon="5.57558">
        <ele>1454.3</ele>
        <time>2007-05-21T08:43:04Z</time>
      </trkpt>
      <trkpt lat="45.23099" lon="5.57513">
        <ele>1450.2</ele>
        <time>2007-05-21T08:43:17Z</time>
      </trkpt>
      <trkpt lat="45.23086" lon="5.57468">
        <ele>1448.4</ele>
        <time>2007-05-21T08:43:31Z</time>
      </trkpt>
      <trkpt lat="45.23062" lon="5.57428">
        <ele>1446.5</ele>
        <time>2007-05-21T08:43:45Z</time>
      </trkpt>
      <trkpt lat="45.23028" lon="5.57415">
        <ele>1441.3</ele>
        <time>2007-05-21T08:44:00Z</time>
      </trkpt>
      <trkpt lat="45.22939" lon="5.57424">
        <ele>1430.5</ele>
        <time>2007-05-21T08:44:36Z</time>
      </trkpt>
      <trkpt lat="45.22873" lon="5.57436">
        <ele>1423.6</ele>
        <time>2007-05-21T08:45:02Z</time>
      </trkpt>
      <trkpt lat="45.22818" lon="5.57428">
        <ele>1419.4</ele>
        <time>2007-05-21T08:45:24Z</time>
      </trkpt>
      <trkpt lat="45.22752" lon="5.57401">
        <ele>1420.1</ele>
        <time>2007-05-21T08:45:52Z</time>
      </trkpt>
      <trkpt lat="45.22715" lon="5.57373">
        <ele>1425.5</ele>
        <time>2007-05-21T08:46:09Z</time>
      </trkpt>
      <trkpt lat="45.22687" lon="5.57358">
        <ele>1427.6</ele>
        <time>2007-05-21T08:46:21Z</time>
      </trkpt>
      <trkpt lat="45.22662" lon="5.57321">
        <ele>1429.8</ele>
        <time>2007-05-21T08:46:40Z</time>
      </trkpt>
      <trkpt lat="45.22643" lon="5.57306">
        <ele>1429.3</ele>
        <time>2007-05-21T08:46:49Z</time>
      </trkpt>
      <trkpt lat="45.22622" lon="5.57296">
        <ele>1428.4</ele>
        <time>2007-05-21T08:46:58Z</time>
      </trkpt>
      <trkpt lat="45.22598" lon="5.57265">
        <ele>1425.3</ele>
        <time>2007-05-21T08:47:11Z</time>
      </trkpt>
      <trkpt lat="45.22588" lon="5.57228">
        <ele>1420.2</ele>
        <time>2007-05-21T08:47:22Z</time>
      </trkpt>
      <trkpt lat="45.22575" lon="5.57192">
        <ele>1414.1</ele>
        <time>2007-05-21T08:47:34Z</time>
      </trkpt>
      <trkpt lat="45.22487" lon="5.57167">
        <ele>1404.5</ele>
        <time>2007-05-21T08:48:10Z</time>
      </trkpt>
      <trkpt lat="45.22458" lon="5.57183">
        <ele>1402.9</ele>
        <time>2007-05-21T08:48:23Z</time>
      </trkpt>
      <trkpt lat="45.22434" lon="5.5722">
        <ele>1403.7</ele>
        <time>2007-05-21T08:48:37Z</time>
      </trkpt>
      <trkpt lat="45.22408" lon="5.57237">
        <ele>1401.3</ele>
        <time>2007-05-21T08:48:49Z</time>
      </trkpt>
      <trkpt lat="45.22382" lon="5.57229">
        <ele>1396.4</ele>
        <time>2007-05-21T08:49:00Z</time>
      </trkpt>
      <trkpt lat="45.22352" lon="5.5724">
        <ele>1392.3</ele>
        <time>2007-05-21T08:49:13Z</time>
      </trkpt>
      <trkpt lat="45.22309" lon="5.57269">
        <ele>1391.2</ele>
        <time>2007-05-21T08:49:32Z</time>
      </trkpt>
      <trkpt lat="45.22274" lon="5.57288">
        <ele>1391.9</ele>
        <time>2007-05-21T08:49:47Z</time>
      </trkpt>
      <trkpt lat="45.22246" lon="5.5729">
        <ele>1391.1</ele>
        <time>2007-05-21T08:49:58Z</time>
      </trkpt>
      <trkpt lat="45.22211" lon="5.57293">
        <ele>1389</ele>
        <time>2007-05-21T08:50:12Z</time>
      </trkpt>
      <trkpt lat="45.22171" lon="5.57281">
        <ele>1386</ele>
        <time>2007-05-21T08:50:29Z</time>
      </trkpt>
      <trkpt lat="45.22146" lon="5.57261">
        <ele>1382.4</ele>
        <time>2007-05-21T08:50:40Z</time>
      </trkpt>
      <trkpt lat="45.22089" lon="5.57198">
        <ele>1376.4</ele>
        <time>2007-05-21T08:51:10Z</time>
      </trkpt>
      <trkpt lat="45.22067" lon="5.57227">
        <ele>1370.9</ele>
        <time>2007-05-21T08:51:22Z</time>
      </trkpt>
      <trkpt lat="45.22049" lon="5.57245">
        <ele>1365.3</ele>
        <time>2007-05-21T08:51:31Z</time>
      </trkpt>
      <trkpt lat="45.22029" lon="5.57231">
        <ele>1361.4</ele>
        <time>2007-05-21T08:51:40Z</time>
      </trkpt>
      <trkpt lat="45.22008" lon="5.57189">
        <ele>1361</ele>
        <time>2007-05-21T08:51:55Z</time>
      </trkpt>
      <trkpt lat="45.21997" lon="5.57145">
        <ele>1362.7</ele>
        <time>2007-05-21T08:52:08Z</time>
      </trkpt>
      <trkpt lat="45.22001" lon="5.57058">
        <ele>1366.2</ele>
        <time>2007-05-21T08:52:35Z</time>
      </trkpt>
      <trkpt lat="45.21999" lon="5.57025">
        <ele>1364.8</ele>
        <time>2007-05-21T08:52:45Z</time>
      </trkpt>
      <trkpt lat="45.22008" lon="5.56986">
        <ele>1362.7</ele>
        <time>2007-05-21T08:52:57Z</time>
      </trkpt>
      <trkpt lat="45.22002" lon="5.56952">
        <ele>1358.2</ele>
        <time>2007-05-21T08:53:07Z</time>
      </trkpt>
      <trkpt lat="45.21976" lon="5.56938">
        <ele>1355.4</ele>
        <time>2007-05-21T08:53:18Z</time>
      </trkpt>
      <trkpt lat="45.21926" lon="5.5694">
        <ele>1353.1</ele>
        <time>2007-05-21T08:53:38Z</time>
      </trkpt>
      <trkpt lat="45.21938" lon="5.5688">
        <ele>1349.8</ele>
        <time>2007-05-21T08:54:01Z</time>
      </trkpt>
      <trkpt lat="45.21979" lon="5.56868">
        <ele>1348.9</ele>
        <time>2007-05-21T08:54:18Z</time>
      </trkpt>
      <trkpt lat="45.2199" lon="5.5686">
        <ele>1348</ele>
        <time>2007-05-21T08:54:26Z</time>
      </trkpt>
      <trkpt lat="45.21999" lon="5.56842">
        <ele>1346</ele>
        <time>2007-05-21T08:54:33Z</time>
      </trkpt>
      <trkpt lat="45.22019" lon="5.56802">
        <ele>1342.4</ele>
        <time>2007-05-21T08:54:48Z</time>
      </trkpt>
      <trkpt lat="45.2203" lon="5.56762">
        <ele>1339.5</ele>
        <time>2007-05-21T08:54:59Z</time>
      </trkpt>
      <trkpt lat="45.22074" lon="5.56643">
        <ele>1328.5</ele>
        <time>2007-05-21T08:55:38Z</time>
      </trkpt>
      <trkpt lat="45.22076" lon="5.56591">
        <ele>1327</ele>
        <time>2007-05-21T08:55:53Z</time>
      </trkpt>
      <trkpt lat="45.22072" lon="5.56548">
        <ele>1325.1</ele>
        <time>2007-05-21T08:56:05Z</time>
      </trkpt>
      <trkpt lat="45.22057" lon="5.56501">
        <ele>1323.6</ele>
        <time>2007-05-21T08:56:19Z</time>
      </trkpt>
      <trkpt lat="45.22038" lon="5.56455">
        <ele>1321.8</ele>
        <time>2007-05-21T08:56:34Z</time>
      </trkpt>
      <trkpt lat="45.21999" lon="5.56396">
        <ele>1318.9</ele>
        <time>2007-05-21T08:56:57Z</time>
      </trkpt>
      <trkpt lat="45.21932" lon="5.56245">
        <ele>1307</ele>
        <time>2007-05-21T08:57:48Z</time>
      </trkpt>
      <trkpt lat="45.21898" lon="5.56184">
        <ele>1305</ele>
        <time>2007-05-21T08:58:09Z</time>
      </trkpt>
      <trkpt lat="45.21882" lon="5.56154">
        <ele>1304</ele>
        <time>2007-05-21T08:58:20Z</time>
      </trkpt>
      <trkpt lat="45.21851" lon="5.56104">
        <ele>1300.6</ele>
        <time>2007-05-21T08:58:39Z</time>
      </trkpt>
      <trkpt lat="45.21836" lon="5.56068">
        <ele>1298.2</ele>
        <time>2007-05-21T08:58:51Z</time>
      </trkpt>
      <trkpt lat="45.2182" lon="5.56032">
        <ele>1298.6</ele>
        <time>2007-05-21T08:59:02Z</time>
      </trkpt>
      <trkpt lat="45.2175" lon="5.56011">
        <ele>1300.5</ele>
        <time>2007-05-21T08:59:32Z</time>
      </trkpt>
      <trkpt lat="45.21688" lon="5.56002">
        <ele>1303.1</ele>
        <time>2007-05-21T08:59:57Z</time>
      </trkpt>
      <trkpt lat="45.21621" lon="5.55995">
        <ele>1300.9</ele>
        <time>2007-05-21T09:00:23Z</time>
      </trkpt>
      <trkpt lat="45.21576" lon="5.55998">
        <ele>1298.2</ele>
        <time>2007-05-21T09:00:41Z</time>
      </trkpt>
      <trkpt lat="45.21536" lon="5.55999">
        <ele>1298.6</ele>
        <time>2007-05-21T09:00:58Z</time>
      </trkpt>
      <trkpt lat="45.21483" lon="5.56001">
        <ele>1298.5</ele>
        <time>2007-05-21T09:01:19Z</time>
      </trkpt>
      <trkpt lat="45.21398" lon="5.56006">
        <ele>1297.9</ele>
        <time>2007-05-21T09:01:53Z</time>
      </trkpt>
      <trkpt lat="45.21363" lon="5.56008">
        <ele>1299.7</ele>
        <time>2007-05-21T09:02:07Z</time>
      </trkpt>
      <trkpt lat="45.21339" lon="5.56006">
        <ele>1300.9</ele>
        <time>2007-05-21T09:02:16Z</time>
      </trkpt>
      <trkpt lat="45.21311" lon="5.55995">
        <ele>1301.3</ele>
        <time>2007-05-21T09:02:28Z</time>
      </trkpt>
      <trkpt lat="45.21287" lon="5.55987">
        <ele>1301.3</ele>
        <time>2007-05-21T09:02:38Z</time>
      </trkpt>
      <trkpt lat="45.2125" lon="5.55971">
        <ele>1300.7</ele>
        <time>2007-05-21T09:02:53Z</time>
      </trkpt>
      <trkpt lat="45.21199" lon="5.55953">
        <ele>1300.5</ele>
        <time>2007-05-21T09:03:14Z</time>
      </trkpt>
      <trkpt lat="45.21167" lon="5.55935">
        <ele>1299.3</ele>
        <time>2007-05-21T09:03:28Z</time>
      </trkpt>
      <trkpt lat="45.21144" lon="5.55928">
        <ele>1299</ele>
        <time>2007-05-21T09:03:37Z</time>
      </trkpt>
      <trkpt lat="45.21111" lon="5.55914">
        <ele>1298.1</ele>
        <time>2007-05-21T09:03:51Z</time>
      </trkpt>
      <trkpt lat="45.21073" lon="5.5592">
        <ele>1298.4</ele>
        <time>2007-05-21T09:04:06Z</time>
      </trkpt>
      <trkpt lat="45.21038" lon="5.55938">
        <ele>1300.7</ele>
        <time>2007-05-21T09:04:21Z</time>
      </trkpt>
      <trkpt lat="45.20965" lon="5.55915">
        <ele>1297.1</ele>
        <time>2007-05-21T09:04:52Z</time>
      </trkpt>
      <trkpt lat="45.20914" lon="5.55889">
        <ele>1294.8</ele>
        <time>2007-05-21T09:05:13Z</time>
      </trkpt>
      <trkpt lat="45.20862" lon="5.55883">
        <ele>1291.1</ele>
        <time>2007-05-21T09:05:34Z</time>
      </trkpt>
      <trkpt lat="45.20804" lon="5.55877">
        <ele>1288.5</ele>
        <time>2007-05-21T09:05:57Z</time>
      </trkpt>
      <trkpt lat="45.20755" lon="5.5587">
        <ele>1287.5</ele>
        <time>2007-05-21T09:06:17Z</time>
      </trkpt>
      <trkpt lat="45.20705" lon="5.55871">
        <ele>1285.9</ele>
        <time>2007-05-21T09:06:37Z</time>
      </trkpt>
      <trkpt lat="45.20637" lon="5.55935">
        <ele>1286.5</ele>
        <time>2007-05-21T09:07:10Z</time>
      </trkpt>
      <trkpt lat="45.20605" lon="5.55948">
        <ele>1285.8</ele>
        <time>2007-05-21T09:07:24Z</time>
      </trkpt>
      <trkpt lat="45.2057" lon="5.55958">
        <ele>1283.9</ele>
        <time>2007-05-21T09:07:38Z</time>
      </trkpt>
      <trkpt lat="45.20546" lon="5.55977">
        <ele>1282.3</ele>
        <time>2007-05-21T09:07:53Z</time>
      </trkpt>
      <trkpt lat="45.20522" lon="5.55993">
        <ele>1280.5</ele>
        <time>2007-05-21T09:08:04Z</time>
      </trkpt>
      <trkpt lat="45.20495" lon="5.56004">
        <ele>1279.9</ele>
        <time>2007-05-21T09:08:15Z</time>
      </trkpt>
      <trkpt lat="45.20423" lon="5.5602">
        <ele>1282.2</ele>
        <time>2007-05-21T09:08:45Z</time>
      </trkpt>
      <trkpt lat="45.20379" lon="5.56029">
        <ele>1280.6</ele>
        <time>2007-05-21T09:09:02Z</time>
      </trkpt>
      <trkpt lat="45.20344" lon="5.56041">
        <ele>1279.8</ele>
        <time>2007-05-21T09:09:17Z</time>
      </trkpt>
      <trkpt lat="45.20302" lon="5.56053">
        <ele>1279.5</ele>
        <time>2007-05-21T09:09:34Z</time>
      </trkpt>
      <trkpt lat="45.20249" lon="5.56057">
        <ele>1277.6</ele>
        <time>2007-05-21T09:09:55Z</time>
      </trkpt>
      <trkpt lat="45.20219" lon="5.56053">
        <ele>1277.7</ele>
        <time>2007-05-21T09:10:07Z</time>
      </trkpt>
      <trkpt lat="45.20143" lon="5.56073">
        <ele>1282.3</ele>
        <time>2007-05-21T09:10:38Z</time>
      </trkpt>
      <trkpt lat="45.20116" lon="5.56082">
        <ele>1282.7</ele>
        <time>2007-05-21T09:10:49Z</time>
      </trkpt>
      <trkpt lat="45.20092" lon="5.56091">
        <ele>1282.4</ele>
        <time>2007-05-21T09:11:00Z</time>
      </trkpt>
      <trkpt lat="45.20059" lon="5.5611">
        <ele>1281.8</ele>
        <time>2007-05-21T09:11:14Z</time>
      </trkpt>
      <trkpt lat="45.20022" lon="5.56083">
        <ele>1277.3</ele>
        <time>2007-05-21T09:11:32Z</time>
      </trkpt>
      <trkpt lat="45.19987" lon="5.56086">
        <ele>1275.4</ele>
        <time>2007-05-21T09:11:46Z</time>
      </trkpt>
      <trkpt lat="45.19921" lon="5.56117">
        <ele>1271.9</ele>
        <time>2007-05-21T09:12:14Z</time>
      </trkpt>
      <trkpt lat="45.19897" lon="5.56132">
        <ele>1271.5</ele>
        <time>2007-05-21T09:12:25Z</time>
      </trkpt>
      <trkpt lat="45.19864" lon="5.56148">
        <ele>1272.8</ele>
        <time>2007-05-21T09:12:39Z</time>
      </trkpt>
      <trkpt lat="45.19827" lon="5.56173">
        <ele>1275.7</ele>
        <time>2007-05-21T09:12:55Z</time>
      </trkpt>
      <trkpt lat="45.19782" lon="5.56207">
        <ele>1274.4</ele>
        <time>2007-05-21T09:13:16Z</time>
      </trkpt>
      <trkpt lat="45.19743" lon="5.56239">
        <ele>1273.9</ele>
        <time>2007-05-21T09:13:34Z</time>
      </trkpt>
      <trkpt lat="45.19663" lon="5.56251">
        <ele>1265.1</ele>
        <time>2007-05-21T09:14:07Z</time>
      </trkpt>
      <trkpt lat="45.19618" lon="5.56236">
        <ele>1256.9</ele>
        <time>2007-05-21T09:14:26Z</time>
      </trkpt>
      <trkpt lat="45.19577" lon="5.56226">
        <ele>1249.2</ele>
        <time>2007-05-21T09:14:43Z</time>
      </trkpt>
      <trkpt lat="45.19546" lon="5.56229">
        <ele>1243.3</ele>
        <time>2007-05-21T09:14:56Z</time>
      </trkpt>
      <trkpt lat="45.19515" lon="5.56226">
        <ele>1237.6</ele>
        <time>2007-05-21T09:15:08Z</time>
      </trkpt>
      <trkpt lat="45.19472" lon="5.56222">
        <ele>1232.1</ele>
        <time>2007-05-21T09:15:25Z</time>
      </trkpt>
      <trkpt lat="45.19388" lon="5.56192">
        <ele>1225.4</ele>
        <time>2007-05-21T09:16:00Z</time>
      </trkpt>
      <trkpt lat="45.19357" lon="5.56175">
        <ele>1224.1</ele>
        <time>2007-05-21T09:16:13Z</time>
      </trkpt>
      <trkpt lat="45.19326" lon="5.56154">
        <ele>1221.5</ele>
        <time>2007-05-21T09:16:27Z</time>
      </trkpt>
      <trkpt lat="45.19298" lon="5.56139">
        <ele>1218</ele>
        <time>2007-05-21T09:16:39Z</time>
      </trkpt>
      <trkpt lat="45.19268" lon="5.56113">
        <ele>1216.4</ele>
        <time>2007-05-21T09:16:53Z</time>
      </trkpt>
      <trkpt lat="45.19243" lon="5.56088">
        <ele>1216.6</ele>
        <time>2007-05-21T09:17:06Z</time>
      </trkpt>
      <trkpt lat="45.19168" lon="5.56059">
        <ele>1206.6</ele>
        <time>2007-05-21T09:17:37Z</time>
      </trkpt>
      <trkpt lat="45.19131" lon="5.5604">
        <ele>1201.1</ele>
        <time>2007-05-21T09:17:52Z</time>
      </trkpt>
      <trkpt lat="45.19114" lon="5.56027">
        <ele>1199.8</ele>
        <time>2007-05-21T09:18:00Z</time>
      </trkpt>
      <trkpt lat="45.19088" lon="5.5601">
        <ele>1199</ele>
        <time>2007-05-21T09:18:12Z</time>
      </trkpt>
      <trkpt lat="45.19055" lon="5.5599">
        <ele>1193.6</ele>
        <time>2007-05-21T09:18:26Z</time>
      </trkpt>
      <trkpt lat="45.19022" lon="5.5597">
        <ele>1187.5</ele>
        <time>2007-05-21T09:18:40Z</time>
      </trkpt>
      <trkpt lat="45.18966" lon="5.55917">
        <ele>1180.8</ele>
        <time>2007-05-21T09:19:07Z</time>
      </trkpt>
      <trkpt lat="45.18947" lon="5.55873">
        <ele>1175.6</ele>
        <time>2007-05-21T09:19:22Z</time>
      </trkpt>
      <trkpt lat="45.18932" lon="5.55849">
        <ele>1172.5</ele>
        <time>2007-05-21T09:19:31Z</time>
      </trkpt>
      <trkpt lat="45.18907" lon="5.55818">
        <ele>1167.7</ele>
        <time>2007-05-21T09:19:44Z</time>
      </trkpt>
      <trkpt lat="45.18883" lon="5.55786">
        <ele>1164.8</ele>
        <time>2007-05-21T09:19:58Z</time>
      </trkpt>
      <trkpt lat="45.18858" lon="5.55748">
        <ele>1165.8</ele>
        <time>2007-05-21T09:20:12Z</time>
      </trkpt>
      <trkpt lat="45.18797" lon="5.55654">
        <ele>1166.3</ele>
        <time>2007-05-21T09:20:48Z</time>
      </trkpt>
      <trkpt lat="45.18755" lon="5.55612">
        <ele>1162.2</ele>
        <time>2007-05-21T09:21:09Z</time>
      </trkpt>
      <trkpt lat="45.18703" lon="5.55569">
        <ele>1155.3</ele>
        <time>2007-05-21T09:21:33Z</time>
      </trkpt>
      <trkpt lat="45.18662" lon="5.55528">
        <ele>1148.8</ele>
        <time>2007-05-21T09:21:53Z</time>
      </trkpt>
      <trkpt lat="45.18638" lon="5.55515">
        <ele>1144.4</ele>
        <time>2007-05-21T09:22:04Z</time>
      </trkpt>
      <trkpt lat="45.18604" lon="5.55486">
        <ele>1140.1</ele>
        <time>2007-05-21T09:22:20Z</time>
      </trkpt>
      <trkpt lat="45.18606" lon="5.55371">
        <ele>1142.4</ele>
        <time>2007-05-21T09:22:57Z</time>
      </trkpt>
      <trkpt lat="45.18578" lon="5.55336">
        <ele>1142.7</ele>
        <time>2007-05-21T09:23:12Z</time>
      </trkpt>
      <trkpt lat="45.18556" lon="5.55296">
        <ele>1138</ele>
        <time>2007-05-21T09:23:26Z</time>
      </trkpt>
      <trkpt lat="45.18544" lon="5.55268">
        <ele>1136</ele>
        <time>2007-05-21T09:23:36Z</time>
      </trkpt>
      <trkpt lat="45.18525" lon="5.55222">
        <ele>1132.1</ele>
        <time>2007-05-21T09:23:50Z</time>
      </trkpt>
      <trkpt lat="45.18515" lon="5.55177">
        <ele>1130.4</ele>
        <time>2007-05-21T09:24:04Z</time>
      </trkpt>
      <trkpt lat="45.18471" lon="5.55136">
        <ele>1120.6</ele>
        <time>2007-05-21T09:24:26Z</time>
      </trkpt>
      <trkpt lat="45.18438" lon="5.55103">
        <ele>1112.2</ele>
        <time>2007-05-21T09:24:44Z</time>
      </trkpt>
      <trkpt lat="45.18424" lon="5.5507">
        <ele>1108.6</ele>
        <time>2007-05-21T09:24:55Z</time>
      </trkpt>
      <trkpt lat="45.18415" lon="5.55039">
        <ele>1105.9</ele>
        <time>2007-05-21T09:25:04Z</time>
      </trkpt>
      <trkpt lat="45.18411" lon="5.54991">
        <ele>1102.5</ele>
        <time>2007-05-21T09:25:18Z</time>
      </trkpt>
      <trkpt lat="45.18401" lon="5.5495">
        <ele>1095.7</ele>
        <time>2007-05-21T09:25:31Z</time>
      </trkpt>
      <trkpt lat="45.18376" lon="5.54898">
        <ele>1085.3</ele>
        <time>2007-05-21T09:25:49Z</time>
      </trkpt>
      <trkpt lat="45.18355" lon="5.54884">
        <ele>1081</ele>
        <time>2007-05-21T09:25:59Z</time>
      </trkpt>
      <trkpt lat="45.18332" lon="5.54878">
        <ele>1078</ele>
        <time>2007-05-21T09:26:08Z</time>
      </trkpt>
      <trkpt lat="45.1832" lon="5.54852">
        <ele>1075.7</ele>
        <time>2007-05-21T09:26:17Z</time>
      </trkpt>
      <trkpt lat="45.183" lon="5.54838">
        <ele>1073.3</ele>
        <time>2007-05-21T09:26:26Z</time>
      </trkpt>
      <trkpt lat="45.18271" lon="5.5483">
        <ele>1070.9</ele>
        <time>2007-05-21T09:26:38Z</time>
      </trkpt>
      <trkpt lat="45.18238" lon="5.54779">
        <ele>1070.5</ele>
        <time>2007-05-21T09:26:58Z</time>
      </trkpt>
      <trkpt lat="45.18218" lon="5.54794">
        <ele>1068</ele>
        <time>2007-05-21T09:27:10Z</time>
      </trkpt>
      <trkpt lat="45.18194" lon="5.54836">
        <ele>1064.4</ele>
        <time>2007-05-21T09:27:25Z</time>
      </trkpt>
      <trkpt lat="45.18168" lon="5.54877">
        <ele>1064.7</ele>
        <time>2007-05-21T09:27:40Z</time>
      </trkpt>
      <trkpt lat="45.18153" lon="5.54906">
        <ele>1066.2</ele>
        <time>2007-05-21T09:27:51Z</time>
      </trkpt>
      <trkpt lat="45.18138" lon="5.54941">
        <ele>1067.4</ele>
        <time>2007-05-21T09:28:02Z</time>
      </trkpt>
      <trkpt lat="45.18121" lon="5.54968">
        <ele>1067.6</ele>
        <time>2007-05-21T09:28:30Z</time>
      </trkpt>
      <trkpt lat="45.18131" lon="5.54938">
        <ele>1067.2</ele>
        <time>2007-05-21T09:28:40Z</time>
      </trkpt>
      <trkpt lat="45.18108" lon="5.54909">
        <ele>1065.8</ele>
        <time>2007-05-21T09:28:53Z</time>
      </trkpt>
      <trkpt lat="45.18088" lon="5.54881">
        <ele>1063.5</ele>
        <time>2007-05-21T09:29:05Z</time>
      </trkpt>
      <trkpt lat="45.18059" lon="5.54881">
        <ele>1061.4</ele>
        <time>2007-05-21T09:29:17Z</time>
      </trkpt>
      <trkpt lat="45.18034" lon="5.54839">
        <ele>1057.8</ele>
        <time>2007-05-21T09:29:33Z</time>
      </trkpt>
      <trkpt lat="45.18025" lon="5.5482">
        <ele>1056.9</ele>
        <time>2007-05-21T09:29:54Z</time>
      </trkpt>
      <trkpt lat="45.18004" lon="5.54862">
        <ele>1056.6</ele>
        <time>2007-05-21T09:30:08Z</time>
      </trkpt>
      <trkpt lat="45.17976" lon="5.54915">
        <ele>1056.4</ele>
        <time>2007-05-21T09:30:27Z</time>
      </trkpt>
      <trkpt lat="45.17957" lon="5.54953">
        <ele>1057.3</ele>
        <time>2007-05-21T09:30:40Z</time>
      </trkpt>
      <trkpt lat="45.1793" lon="5.55004">
        <ele>1058.3</ele>
        <time>2007-05-21T09:30:58Z</time>
      </trkpt>
      <trkpt lat="45.17915" lon="5.55028">
        <ele>1057.9</ele>
        <time>2007-05-21T09:31:07Z</time>
      </trkpt>
      <trkpt lat="45.17879" lon="5.55092">
        <ele>1057</ele>
        <time>2007-05-21T09:31:31Z</time>
      </trkpt>
      <trkpt lat="45.1786" lon="5.55128">
        <ele>1055.9</ele>
        <time>2007-05-21T09:31:44Z</time>
      </trkpt>
      <trkpt lat="45.17829" lon="5.55148">
        <ele>1054.6</ele>
        <time>2007-05-21T09:31:58Z</time>
      </trkpt>
      <trkpt lat="45.17793" lon="5.5516">
        <ele>1055.6</ele>
        <time>2007-05-21T09:32:12Z</time>
      </trkpt>
      <trkpt lat="45.1777" lon="5.55165">
        <ele>1056.3</ele>
        <time>2007-05-21T09:32:22Z</time>
      </trkpt>
      <trkpt lat="45.1775" lon="5.55152">
        <ele>1057.4</ele>
        <time>2007-05-21T09:32:31Z</time>
      </trkpt>
      <trkpt lat="45.17701" lon="5.55137">
        <ele>1058.2</ele>
        <time>2007-05-21T09:32:55Z</time>
      </trkpt>
      <trkpt lat="45.17669" lon="5.55108">
        <ele>1057.2</ele>
        <time>2007-05-21T09:33:10Z</time>
      </trkpt>
      <trkpt lat="45.17639" lon="5.55084">
        <ele>1057</ele>
        <time>2007-05-21T09:33:23Z</time>
      </trkpt>
      <trkpt lat="45.17621" lon="5.55068">
        <ele>1056.6</ele>
        <time>2007-05-21T09:33:32Z</time>
      </trkpt>
      <trkpt lat="45.17599" lon="5.5505">
        <ele>1056.4</ele>
        <time>2007-05-21T09:33:42Z</time>
      </trkpt>
      <trkpt lat="45.17581" lon="5.55038">
        <ele>1056.4</ele>
        <time>2007-05-21T09:33:50Z</time>
      </trkpt>
      <trkpt lat="45.17538" lon="5.54955">
        <ele>1054.5</ele>
        <time>2007-05-21T09:34:19Z</time>
      </trkpt>
      <trkpt lat="45.17519" lon="5.54921">
        <ele>1054.6</ele>
        <time>2007-05-21T09:34:31Z</time>
      </trkpt>
      <trkpt lat="45.17506" lon="5.54888">
        <ele>1054.1</ele>
        <time>2007-05-21T09:34:42Z</time>
      </trkpt>
      <trkpt lat="45.17508" lon="5.54826">
        <ele>1052.5</ele>
        <time>2007-05-21T09:35:00Z</time>
      </trkpt>
      <trkpt lat="45.17511" lon="5.54782">
        <ele>1051.3</ele>
        <time>2007-05-21T09:35:12Z</time>
      </trkpt>
      <trkpt lat="45.17514" lon="5.54737">
        <ele>1050.1</ele>
        <time>2007-05-21T09:35:25Z</time>
      </trkpt>
      <trkpt lat="45.17487" lon="5.54651">
        <ele>1048.5</ele>
        <time>2007-05-21T09:35:53Z</time>
      </trkpt>
      <trkpt lat="45.17463" lon="5.54618">
        <ele>1047.9</ele>
        <time>2007-05-21T09:36:06Z</time>
      </trkpt>
      <trkpt lat="45.17425" lon="5.54569">
        <ele>1047.5</ele>
        <time>2007-05-21T09:36:27Z</time>
      </trkpt>
      <trkpt lat="45.17399" lon="5.5453">
        <ele>1046.3</ele>
        <time>2007-05-21T09:36:42Z</time>
      </trkpt>
      <trkpt lat="45.17371" lon="5.54489">
        <ele>1044.7</ele>
        <time>2007-05-21T09:36:58Z</time>
      </trkpt>
      <trkpt lat="45.17351" lon="5.54484">
        <ele>1044.2</ele>
        <time>2007-05-21T09:37:08Z</time>
      </trkpt>
      <trkpt lat="45.17325" lon="5.54556">
        <ele>1046.2</ele>
        <time>2007-05-21T09:37:32Z</time>
      </trkpt>
      <trkpt lat="45.17318" lon="5.54585">
        <ele>1047.9</ele>
        <time>2007-05-21T09:37:41Z</time>
      </trkpt>
      <trkpt lat="45.17296" lon="5.54636">
        <ele>1050.4</ele>
        <time>2007-05-21T09:37:58Z</time>
      </trkpt>
      <trkpt lat="45.17284" lon="5.54665">
        <ele>1050.8</ele>
        <time>2007-05-21T09:38:07Z</time>
      </trkpt>
      <trkpt lat="45.17268" lon="5.54697">
        <ele>1052.3</ele>
        <time>2007-05-21T09:38:19Z</time>
      </trkpt>
      <trkpt lat="45.17248" lon="5.54739">
        <ele>1055.1</ele>
        <time>2007-05-21T09:38:33Z</time>
      </trkpt>
      <trkpt lat="45.17211" lon="5.54823">
        <ele>1061.3</ele>
        <time>2007-05-21T09:39:01Z</time>
      </trkpt>
      <trkpt lat="45.17202" lon="5.54847">
        <ele>1061.2</ele>
        <time>2007-05-21T09:39:09Z</time>
      </trkpt>
      <trkpt lat="45.17189" lon="5.54872">
        <ele>1061.7</ele>
        <time>2007-05-21T09:39:18Z</time>
      </trkpt>
      <trkpt lat="45.17174" lon="5.54898">
        <ele>1062.2</ele>
        <time>2007-05-21T09:39:27Z</time>
      </trkpt>
      <trkpt lat="45.17154" lon="5.54938">
        <ele>1063.7</ele>
        <time>2007-05-21T09:39:41Z</time>
      </trkpt>
      <trkpt lat="45.17144" lon="5.54964">
        <ele>1064.6</ele>
        <time>2007-05-21T09:39:50Z</time>
      </trkpt>
      <trkpt lat="45.1712" lon="5.55018">
        <ele>1066</ele>
        <time>2007-05-21T09:40:08Z</time>
      </trkpt>
      <trkpt lat="45.17108" lon="5.55043">
        <ele>1067.7</ele>
        <time>2007-05-21T09:40:17Z</time>
      </trkpt>
      <trkpt lat="45.17096" lon="5.55066">
        <ele>1070.1</ele>
        <time>2007-05-21T09:40:25Z</time>
      </trkpt>
      <trkpt lat="45.17084" lon="5.55091">
        <ele>1072.7</ele>
        <time>2007-05-21T09:40:33Z</time>
      </trkpt>
      <trkpt lat="45.17074" lon="5.55119">
        <ele>1072.9</ele>
        <time>2007-05-21T09:40:42Z</time>
      </trkpt>
      <trkpt lat="45.1706" lon="5.5515">
        <ele>1072.7</ele>
        <time>2007-05-21T09:40:53Z</time>
      </trkpt>
      <trkpt lat="45.17025" lon="5.5519">
        <ele>1071.8</ele>
        <time>2007-05-21T09:41:11Z</time>
      </trkpt>
      <trkpt lat="45.17007" lon="5.55206">
        <ele>1071</ele>
        <time>2007-05-21T09:41:19Z</time>
      </trkpt>
      <trkpt lat="45.16982" lon="5.55222">
        <ele>1071.4</ele>
        <time>2007-05-21T09:41:30Z</time>
      </trkpt>
      <trkpt lat="45.16962" lon="5.55233">
        <ele>1072.7</ele>
        <time>2007-05-21T09:41:39Z</time>
      </trkpt>
      <trkpt lat="45.16931" lon="5.55239">
        <ele>1075.7</ele>
        <time>2007-05-21T09:41:51Z</time>
      </trkpt>
      <trkpt lat="45.16893" lon="5.55248">
        <ele>1077.3</ele>
        <time>2007-05-21T09:42:07Z</time>
      </trkpt>
      <trkpt lat="45.16845" lon="5.55262">
        <ele>1078.5</ele>
        <time>2007-05-21T09:42:27Z</time>
      </trkpt>
      <trkpt lat="45.16812" lon="5.5527">
        <ele>1079.4</ele>
        <time>2007-05-21T09:42:40Z</time>
      </trkpt>
      <trkpt lat="45.16775" lon="5.55279">
        <ele>1080.7</ele>
        <time>2007-05-21T09:42:55Z</time>
      </trkpt>
      <trkpt lat="45.16722" lon="5.55283">
        <ele>1078.1</ele>
        <time>2007-05-21T09:43:16Z</time>
      </trkpt>
      <trkpt lat="45.16674" lon="5.55286">
        <ele>1072.6</ele>
        <time>2007-05-21T09:43:35Z</time>
      </trkpt>
      <trkpt lat="45.16623" lon="5.55289">
        <ele>1070.9</ele>
        <time>2007-05-21T09:43:56Z</time>
      </trkpt>
      <trkpt lat="45.16529" lon="5.55294">
        <ele>1067.5</ele>
        <time>2007-05-21T09:44:33Z</time>
      </trkpt>
      <trkpt lat="45.16432" lon="5.55288">
        <ele>1061.7</ele>
        <time>2007-05-21T09:45:12Z</time>
      </trkpt>
      <trkpt lat="45.16389" lon="5.55282">
        <ele>1057.7</ele>
        <time>2007-05-21T09:45:30Z</time>
      </trkpt>
      <trkpt lat="45.16285" lon="5.55279">
        <ele>1052.2</ele>
        <time>2007-05-21T09:46:11Z</time>
      </trkpt>
      <trkpt lat="45.16246" lon="5.55281">
        <ele>1052.4</ele>
        <time>2007-05-21T09:46:27Z</time>
      </trkpt>
      <trkpt lat="45.16189" lon="5.55283">
        <ele>1051.1</ele>
        <time>2007-05-21T09:46:49Z</time>
      </trkpt>
      <trkpt lat="45.16098" lon="5.55288">
        <ele>1049.9</ele>
        <time>2007-05-21T09:47:26Z</time>
      </trkpt>
      <trkpt lat="45.16053" lon="5.5529">
        <ele>1048.7</ele>
        <time>2007-05-21T09:47:44Z</time>
      </trkpt>
      <trkpt lat="45.16024" lon="5.55291">
        <ele>1047.5</ele>
        <time>2007-05-21T09:47:55Z</time>
      </trkpt>
      <trkpt lat="45.15933" lon="5.55291">
        <ele>1044.1</ele>
        <time>2007-05-21T09:48:32Z</time>
      </trkpt>
      <trkpt lat="45.15846" lon="5.55291">
        <ele>1044.8</ele>
        <time>2007-05-21T09:49:07Z</time>
      </trkpt>
      <trkpt lat="45.15739" lon="5.55289">
        <ele>1046.2</ele>
        <time>2007-05-21T09:49:49Z</time>
      </trkpt>
      <trkpt lat="45.15676" lon="5.55308">
        <ele>1048</ele>
        <time>2007-05-21T09:50:15Z</time>
      </trkpt>
      <trkpt lat="45.15647" lon="5.55336">
        <ele>1050.9</ele>
        <time>2007-05-21T09:50:29Z</time>
      </trkpt>
      <trkpt lat="45.15615" lon="5.55375">
        <ele>1053.7</ele>
        <time>2007-05-21T09:50:46Z</time>
      </trkpt>
      <trkpt lat="45.15586" lon="5.55404">
        <ele>1057.5</ele>
        <time>2007-05-21T09:51:00Z</time>
      </trkpt>
      <trkpt lat="45.15563" lon="5.55429">
        <ele>1065.9</ele>
        <time>2007-05-21T09:51:12Z</time>
      </trkpt>
      <trkpt lat="45.1554" lon="5.5544">
        <ele>1073.1</ele>
        <time>2007-05-21T09:51:22Z</time>
      </trkpt>
      <trkpt lat="45.15463" lon="5.55428">
        <ele>1078.1</ele>
        <time>2007-05-21T09:51:53Z</time>
      </trkpt>
      <trkpt lat="45.15393" lon="5.55406">
        <ele>1076.7</ele>
        <time>2007-05-21T09:52:21Z</time>
      </trkpt>
      <trkpt lat="45.15361" lon="5.55396">
        <ele>1078.2</ele>
        <time>2007-05-21T09:52:35Z</time>
      </trkpt>
      <trkpt lat="45.15313" lon="5.55414">
        <ele>1087.2</ele>
        <time>2007-05-21T09:52:54Z</time>
      </trkpt>
      <trkpt lat="45.15281" lon="5.55427">
        <ele>1087.8</ele>
        <time>2007-05-21T09:53:08Z</time>
      </trkpt>
      <trkpt lat="45.15227" lon="5.55428">
        <ele>1089.8</ele>
        <time>2007-05-21T09:53:30Z</time>
      </trkpt>
      <trkpt lat="45.15205" lon="5.55405">
        <ele>1088.3</ele>
        <time>2007-05-21T09:53:41Z</time>
      </trkpt>
      <trkpt lat="45.15147" lon="5.5538">
        <ele>1087.2</ele>
        <time>2007-05-21T09:54:08Z</time>
      </trkpt>
      <trkpt lat="45.15127" lon="5.55396">
        <ele>1093.7</ele>
        <time>2007-05-21T09:54:17Z</time>
      </trkpt>
      <trkpt lat="45.15103" lon="5.5541">
        <ele>1100.1</ele>
        <time>2007-05-21T09:54:27Z</time>
      </trkpt>
      <trkpt lat="45.15046" lon="5.55435">
        <ele>1110.9</ele>
        <time>2007-05-21T09:54:51Z</time>
      </trkpt>
      <trkpt lat="45.14989" lon="5.55434">
        <ele>1109.5</ele>
        <time>2007-05-21T09:55:14Z</time>
      </trkpt>
      <trkpt lat="45.14958" lon="5.55434">
        <ele>1112</ele>
        <time>2007-05-21T09:55:26Z</time>
      </trkpt>
      <trkpt lat="45.14901" lon="5.55426">
        <ele>1112.7</ele>
        <time>2007-05-21T09:55:49Z</time>
      </trkpt>
      <trkpt lat="45.1488" lon="5.5542">
        <ele>1111.6</ele>
        <time>2007-05-21T09:55:58Z</time>
      </trkpt>
      <trkpt lat="45.14801" lon="5.55406">
        <ele>1109.8</ele>
        <time>2007-05-21T09:56:30Z</time>
      </trkpt>
      <trkpt lat="45.14775" lon="5.55415">
        <ele>1114</ele>
        <time>2007-05-21T09:56:40Z</time>
      </trkpt>
      <trkpt lat="45.14743" lon="5.55434">
        <ele>1118.6</ele>
        <time>2007-05-21T09:56:55Z</time>
      </trkpt>
      <trkpt lat="45.14733" lon="5.55462">
        <ele>1124.9</ele>
        <time>2007-05-21T09:57:04Z</time>
      </trkpt>
      <trkpt lat="45.14691" lon="5.55531">
        <ele>1134.4</ele>
        <time>2007-05-21T09:57:30Z</time>
      </trkpt>
      <trkpt lat="45.14647" lon="5.55533">
        <ele>1130.3</ele>
        <time>2007-05-21T09:57:48Z</time>
      </trkpt>
      <trkpt lat="45.14614" lon="5.55515">
        <ele>1126.6</ele>
        <time>2007-05-21T09:58:02Z</time>
      </trkpt>
      <trkpt lat="45.14579" lon="5.55508">
        <ele>1126</ele>
        <time>2007-05-21T09:58:16Z</time>
      </trkpt>
      <trkpt lat="45.14529" lon="5.55511">
        <ele>1126.1</ele>
        <time>2007-05-21T09:58:36Z</time>
      </trkpt>
      <trkpt lat="45.14501" lon="5.55515">
        <ele>1126.7</ele>
        <time>2007-05-21T09:58:47Z</time>
      </trkpt>
      <trkpt lat="45.1443" lon="5.55557">
        <ele>1126.2</ele>
        <time>2007-05-21T09:59:18Z</time>
      </trkpt>
      <trkpt lat="45.14405" lon="5.55578">
        <ele>1126.9</ele>
        <time>2007-05-21T09:59:30Z</time>
      </trkpt>
      <trkpt lat="45.14379" lon="5.55613">
        <ele>1130.3</ele>
        <time>2007-05-21T09:59:45Z</time>
      </trkpt>
      <trkpt lat="45.14367" lon="5.55642">
        <ele>1133.7</ele>
        <time>2007-05-21T09:59:54Z</time>
      </trkpt>
      <trkpt lat="45.14347" lon="5.55698">
        <ele>1146.8</ele>
        <time>2007-05-21T10:00:12Z</time>
      </trkpt>
      <trkpt lat="45.1433" lon="5.55717">
        <ele>1150.8</ele>
        <time>2007-05-21T10:00:21Z</time>
      </trkpt>
      <trkpt lat="45.14265" lon="5.55771">
        <ele>1160.6</ele>
        <time>2007-05-21T10:00:51Z</time>
      </trkpt>
      <trkpt lat="45.14228" lon="5.55803">
        <ele>1174.3</ele>
        <time>2007-05-21T10:01:09Z</time>
      </trkpt>
      <trkpt lat="45.142" lon="5.55813">
        <ele>1179</ele>
        <time>2007-05-21T10:01:20Z</time>
      </trkpt>
      <trkpt lat="45.14177" lon="5.55808">
        <ele>1177.3</ele>
        <time>2007-05-21T10:01:30Z</time>
      </trkpt>
      <trkpt lat="45.14152" lon="5.55799">
        <ele>1175.5</ele>
        <time>2007-05-21T10:01:40Z</time>
      </trkpt>
      <trkpt lat="45.14088" lon="5.55779">
        <ele>1174</ele>
        <time>2007-05-21T10:02:06Z</time>
      </trkpt>
      <trkpt lat="45.14001" lon="5.55774">
        <ele>1184.3</ele>
        <time>2007-05-21T10:02:41Z</time>
      </trkpt>
      <trkpt lat="45.13954" lon="5.5577">
        <ele>1189</ele>
        <time>2007-05-21T10:03:00Z</time>
      </trkpt>
      <trkpt lat="45.13855" lon="5.55778">
        <ele>1199.2</ele>
        <time>2007-05-21T10:03:40Z</time>
      </trkpt>
      <trkpt lat="45.13819" lon="5.55792">
        <ele>1203.3</ele>
        <time>2007-05-21T10:03:55Z</time>
      </trkpt>
      <trkpt lat="45.13767" lon="5.5582">
        <ele>1202</ele>
        <time>2007-05-21T10:04:17Z</time>
      </trkpt>
      <trkpt lat="45.13746" lon="5.55833">
        <ele>1199.2</ele>
        <time>2007-05-21T10:04:26Z</time>
      </trkpt>
      <trkpt lat="45.13691" lon="5.5585">
        <ele>1204.5</ele>
        <time>2007-05-21T10:04:49Z</time>
      </trkpt>
      <trkpt lat="45.13664" lon="5.55834">
        <ele>1202.2</ele>
        <time>2007-05-21T10:05:01Z</time>
      </trkpt>
      <trkpt lat="45.13638" lon="5.55823">
        <ele>1204</ele>
        <time>2007-05-21T10:05:12Z</time>
      </trkpt>
      <trkpt lat="45.13585" lon="5.55782">
        <ele>1207.1</ele>
        <time>2007-05-21T10:05:37Z</time>
      </trkpt>
      <trkpt lat="45.13566" lon="5.55783">
        <ele>1208.1</ele>
        <time>2007-05-21T10:05:44Z</time>
      </trkpt>
      <trkpt lat="45.13547" lon="5.55787">
        <ele>1209.1</ele>
        <time>2007-05-21T10:05:52Z</time>
      </trkpt>
      <trkpt lat="45.1349" lon="5.55794">
        <ele>1211.9</ele>
        <time>2007-05-21T10:06:16Z</time>
      </trkpt>
      <trkpt lat="45.1345" lon="5.55812">
        <ele>1212.2</ele>
        <time>2007-05-21T10:06:32Z</time>
      </trkpt>
      <trkpt lat="45.13397" lon="5.5583">
        <ele>1211.8</ele>
        <time>2007-05-21T10:06:54Z</time>
      </trkpt>
      <trkpt lat="45.13373" lon="5.55825">
        <ele>1213</ele>
        <time>2007-05-21T10:07:04Z</time>
      </trkpt>
      <trkpt lat="45.13346" lon="5.55833">
        <ele>1211.9</ele>
        <time>2007-05-21T10:07:15Z</time>
      </trkpt>
      <trkpt lat="45.13302" lon="5.55842">
        <ele>1216.1</ele>
        <time>2007-05-21T10:07:33Z</time>
      </trkpt>
      <trkpt lat="45.13253" lon="5.5585">
        <ele>1220.6</ele>
        <time>2007-05-21T10:07:53Z</time>
      </trkpt>
      <trkpt lat="45.13204" lon="5.55863">
        <ele>1222.6</ele>
        <time>2007-05-21T10:08:13Z</time>
      </trkpt>
      <trkpt lat="45.13181" lon="5.55874">
        <ele>1222.5</ele>
        <time>2007-05-21T10:08:23Z</time>
      </trkpt>
      <trkpt lat="45.13146" lon="5.55907">
        <ele>1220.6</ele>
        <time>2007-05-21T10:08:40Z</time>
      </trkpt>
      <trkpt lat="45.13123" lon="5.55929">
        <ele>1222.4</ele>
        <time>2007-05-21T10:08:51Z</time>
      </trkpt>
      <trkpt lat="45.13106" lon="5.55948">
        <ele>1224.8</ele>
        <time>2007-05-21T10:09:00Z</time>
      </trkpt>
      <trkpt lat="45.13046" lon="5.56008">
        <ele>1227.8</ele>
        <time>2007-05-21T10:09:30Z</time>
      </trkpt>
    </trkseg>
  </trk>
</gpx>